<?xml version="1.0" encoding="UTF-8" standalone="no" ?>
<gpx xmlns="http://www.topografix.com/GPX/1/1" xmlns:xsi="http://www.w3.org/2001/XMLSchema-instance" xsi:schemaLocation="http://www.topografix.com/GPX/1/1 http://www.topografix.com/GPX/1/1/gpx.xsd" version="1.1" creator="VisuGPX - https://www.visugpx.com">
  <metadata>
    <name>Sortie vers sennecey le grand</name>
    <desc><![CDATA[il en manque une petite partie]]></desc>
  </metadata>
  <trk>
    <name><![CDATA[ACTIVE LOG]]></name>
    <trkseg>
      <trkpt lat="46.59032" lon="4.83099">
        <ele>444.7470703</ele>
        <time>2013-07-07T06:57:19Z</time>
      </trkpt>
      <trkpt lat="46.59032" lon="4.83099">
        <ele>444.7470703</ele>
        <time>2013-07-07T06:58:30Z</time>
      </trkpt>
      <trkpt lat="46.59028" lon="4.83098">
        <ele>445.2276611</ele>
        <time>2013-07-07T06:58:34Z</time>
      </trkpt>
      <trkpt lat="46.59022" lon="4.83095">
        <ele>446.1890869</ele>
        <time>2013-07-07T06:58:40Z</time>
      </trkpt>
      <trkpt lat="46.59018" lon="4.83093">
        <ele>446.6696777</ele>
        <time>2013-07-07T06:58:44Z</time>
      </trkpt>
      <trkpt lat="46.59015" lon="4.83091">
        <ele>447.1502686</ele>
        <time>2013-07-07T06:58:49Z</time>
      </trkpt>
      <trkpt lat="46.59006" lon="4.83083">
        <ele>449.072998</ele>
        <time>2013-07-07T06:59:01Z</time>
      </trkpt>
      <trkpt lat="46.58996" lon="4.83076">
        <ele>450.9956055</ele>
        <time>2013-07-07T06:59:11Z</time>
      </trkpt>
      <trkpt lat="46.58993" lon="4.83074">
        <ele>453.8796387</ele>
        <time>2013-07-07T06:59:23Z</time>
      </trkpt>
      <trkpt lat="46.58993" lon="4.83074">
        <ele>454.3602295</ele>
        <time>2013-07-07T06:59:26Z</time>
      </trkpt>
      <trkpt lat="46.58993" lon="4.83074">
        <ele>454.8408203</ele>
        <time>2013-07-07T06:59:29Z</time>
      </trkpt>
      <trkpt lat="46.58993" lon="4.83074">
        <ele>456.7635498</ele>
        <time>2013-07-07T06:59:45Z</time>
      </trkpt>
      <trkpt lat="46.58993" lon="4.83074">
        <ele>459.1668701</ele>
        <time>2013-07-07T07:00:00Z</time>
      </trkpt>
      <trkpt lat="46.58993" lon="4.83074">
        <ele>460.6087646</ele>
        <time>2013-07-07T07:00:15Z</time>
      </trkpt>
      <trkpt lat="46.58993" lon="4.83074">
        <ele>462.0507813</ele>
        <time>2013-07-07T07:00:27Z</time>
      </trkpt>
      <trkpt lat="46.58993" lon="4.83074">
        <ele>464.4541016</ele>
        <time>2013-07-07T07:00:44Z</time>
      </trkpt>
      <trkpt lat="46.58952" lon="4.83006">
        <ele>465.8961182</ele>
        <time>2013-07-07T07:00:54Z</time>
      </trkpt>
      <trkpt lat="46.58952" lon="4.83006">
        <ele>467.8187256</ele>
        <time>2013-07-07T07:01:09Z</time>
      </trkpt>
      <trkpt lat="46.58952" lon="4.83006">
        <ele>469.741333</ele>
        <time>2013-07-07T07:01:20Z</time>
      </trkpt>
      <trkpt lat="46.58952" lon="4.83006">
        <ele>470.7026367</ele>
        <time>2013-07-07T07:01:35Z</time>
      </trkpt>
      <trkpt lat="46.58952" lon="4.83006">
        <ele>471.6639404</ele>
        <time>2013-07-07T07:01:44Z</time>
      </trkpt>
      <trkpt lat="46.58924" lon="4.82955">
        <ele>472.1446533</ele>
        <time>2013-07-07T07:01:49Z</time>
      </trkpt>
      <trkpt lat="46.58912" lon="4.82935">
        <ele>474.0672607</ele>
        <time>2013-07-07T07:02:05Z</time>
      </trkpt>
      <trkpt lat="46.58912" lon="4.82935">
        <ele>474.0672607</ele>
        <time>2013-07-07T07:02:09Z</time>
      </trkpt>
      <trkpt lat="46.58907" lon="4.82926">
        <ele>475.0286865</ele>
        <time>2013-07-07T07:02:13Z</time>
      </trkpt>
      <trkpt lat="46.589" lon="4.82915">
        <ele>476.4705811</ele>
        <time>2013-07-07T07:02:22Z</time>
      </trkpt>
      <trkpt lat="46.589" lon="4.82915">
        <ele>476.9512939</ele>
        <time>2013-07-07T07:02:24Z</time>
      </trkpt>
      <trkpt lat="46.58896" lon="4.82907">
        <ele>479.3544922</ele>
        <time>2013-07-07T07:02:41Z</time>
      </trkpt>
      <trkpt lat="46.58896" lon="4.82907">
        <ele>481.2772217</ele>
        <time>2013-07-07T07:02:58Z</time>
      </trkpt>
      <trkpt lat="46.5887" lon="4.82865">
        <ele>481.7578125</ele>
        <time>2013-07-07T07:03:04Z</time>
      </trkpt>
      <trkpt lat="46.5887" lon="4.82865">
        <ele>482.7192383</ele>
        <time>2013-07-07T07:03:09Z</time>
      </trkpt>
      <trkpt lat="46.5886" lon="4.82853">
        <ele>483.1998291</ele>
        <time>2013-07-07T07:03:13Z</time>
      </trkpt>
      <trkpt lat="46.5886" lon="4.82853">
        <ele>483.1998291</ele>
        <time>2013-07-07T07:03:18Z</time>
      </trkpt>
      <trkpt lat="46.58852" lon="4.82843">
        <ele>484.1611328</ele>
        <time>2013-07-07T07:03:24Z</time>
      </trkpt>
      <trkpt lat="46.58849" lon="4.8284">
        <ele>484.6418457</ele>
        <time>2013-07-07T07:03:28Z</time>
      </trkpt>
      <trkpt lat="46.58829" lon="4.82816">
        <ele>485.6030273</ele>
        <time>2013-07-07T07:03:47Z</time>
      </trkpt>
      <trkpt lat="46.58829" lon="4.82816">
        <ele>487.0450439</ele>
        <time>2013-07-07T07:03:55Z</time>
      </trkpt>
      <trkpt lat="46.58811" lon="4.82794">
        <ele>488.4871826</ele>
        <time>2013-07-07T07:04:10Z</time>
      </trkpt>
      <trkpt lat="46.58808" lon="4.82791">
        <ele>488.4871826</ele>
        <time>2013-07-07T07:04:13Z</time>
      </trkpt>
      <trkpt lat="46.58799" lon="4.8278">
        <ele>489.4483643</ele>
        <time>2013-07-07T07:04:23Z</time>
      </trkpt>
      <trkpt lat="46.58787" lon="4.82766">
        <ele>490.8903809</ele>
        <time>2013-07-07T07:04:33Z</time>
      </trkpt>
      <trkpt lat="46.58784" lon="4.82763">
        <ele>491.3709717</ele>
        <time>2013-07-07T07:04:38Z</time>
      </trkpt>
      <trkpt lat="46.5877" lon="4.82746">
        <ele>492.3323975</ele>
        <time>2013-07-07T07:04:52Z</time>
      </trkpt>
      <trkpt lat="46.58768" lon="4.82743">
        <ele>492.3323975</ele>
        <time>2013-07-07T07:04:55Z</time>
      </trkpt>
      <trkpt lat="46.58762" lon="4.82736">
        <ele>492.8129883</ele>
        <time>2013-07-07T07:05:00Z</time>
      </trkpt>
      <trkpt lat="46.5876" lon="4.82734">
        <ele>492.8129883</ele>
        <time>2013-07-07T07:05:03Z</time>
      </trkpt>
      <trkpt lat="46.58748" lon="4.82722">
        <ele>493.774292</ele>
        <time>2013-07-07T07:05:12Z</time>
      </trkpt>
      <trkpt lat="46.58744" lon="4.82717">
        <ele>494.2550049</ele>
        <time>2013-07-07T07:05:16Z</time>
      </trkpt>
      <trkpt lat="46.58735" lon="4.82707">
        <ele>494.2550049</ele>
        <time>2013-07-07T07:05:23Z</time>
      </trkpt>
      <trkpt lat="46.58724" lon="4.82695">
        <ele>495.2161865</ele>
        <time>2013-07-07T07:05:30Z</time>
      </trkpt>
      <trkpt lat="46.58715" lon="4.82686">
        <ele>494.7355957</ele>
        <time>2013-07-07T07:05:36Z</time>
      </trkpt>
      <trkpt lat="46.58712" lon="4.82683">
        <ele>495.2161865</ele>
        <time>2013-07-07T07:05:38Z</time>
      </trkpt>
      <trkpt lat="46.58692" lon="4.82662">
        <ele>496.6583252</ele>
        <time>2013-07-07T07:05:51Z</time>
      </trkpt>
      <trkpt lat="46.58683" lon="4.82652">
        <ele>497.138916</ele>
        <time>2013-07-07T07:05:57Z</time>
      </trkpt>
      <trkpt lat="46.58666" lon="4.82634">
        <ele>497.138916</ele>
        <time>2013-07-07T07:06:09Z</time>
      </trkpt>
      <trkpt lat="46.5865" lon="4.82617">
        <ele>497.6196289</ele>
        <time>2013-07-07T07:06:18Z</time>
      </trkpt>
      <trkpt lat="46.58625" lon="4.82591">
        <ele>496.6583252</ele>
        <time>2013-07-07T07:06:28Z</time>
      </trkpt>
      <trkpt lat="46.58597" lon="4.82563">
        <ele>496.1777344</ele>
        <time>2013-07-07T07:06:37Z</time>
      </trkpt>
      <trkpt lat="46.58569" lon="4.82533">
        <ele>496.6583252</ele>
        <time>2013-07-07T07:06:47Z</time>
      </trkpt>
      <trkpt lat="46.58539" lon="4.82502">
        <ele>495.2161865</ele>
        <time>2013-07-07T07:06:59Z</time>
      </trkpt>
      <trkpt lat="46.58539" lon="4.82502">
        <ele>495.6968994</ele>
        <time>2013-07-07T07:07:01Z</time>
      </trkpt>
      <trkpt lat="46.58529" lon="4.82491">
        <ele>494.7355957</ele>
        <time>2013-07-07T07:07:05Z</time>
      </trkpt>
      <trkpt lat="46.58506" lon="4.82467">
        <ele>491.8516846</ele>
        <time>2013-07-07T07:07:16Z</time>
      </trkpt>
      <trkpt lat="46.58503" lon="4.82463">
        <ele>490.8903809</ele>
        <time>2013-07-07T07:07:18Z</time>
      </trkpt>
      <trkpt lat="46.58492" lon="4.82451">
        <ele>488.9677734</ele>
        <time>2013-07-07T07:07:23Z</time>
      </trkpt>
      <trkpt lat="46.58467" lon="4.82425">
        <ele>487.5256348</ele>
        <time>2013-07-07T07:07:32Z</time>
      </trkpt>
      <trkpt lat="46.58452" lon="4.82409">
        <ele>485.6030273</ele>
        <time>2013-07-07T07:07:38Z</time>
      </trkpt>
      <trkpt lat="46.5843" lon="4.82385">
        <ele>484.1611328</ele>
        <time>2013-07-07T07:07:48Z</time>
      </trkpt>
      <trkpt lat="46.58427" lon="4.82383">
        <ele>483.1998291</ele>
        <time>2013-07-07T07:07:49Z</time>
      </trkpt>
      <trkpt lat="46.5836" lon="4.82434">
        <ele>480.7966309</ele>
        <time>2013-07-07T07:08:02Z</time>
      </trkpt>
      <trkpt lat="46.5835" lon="4.82428">
        <ele>479.3544922</ele>
        <time>2013-07-07T07:08:07Z</time>
      </trkpt>
      <trkpt lat="46.58335" lon="4.82416">
        <ele>477.4318848</ele>
        <time>2013-07-07T07:08:14Z</time>
      </trkpt>
      <trkpt lat="46.58305" lon="4.82396">
        <ele>474.5479736</ele>
        <time>2013-07-07T07:08:25Z</time>
      </trkpt>
      <trkpt lat="46.58275" lon="4.82367">
        <ele>472.1446533</ele>
        <time>2013-07-07T07:08:38Z</time>
      </trkpt>
      <trkpt lat="46.58271" lon="4.82361">
        <ele>472.1446533</ele>
        <time>2013-07-07T07:08:40Z</time>
      </trkpt>
      <trkpt lat="46.58269" lon="4.82327">
        <ele>474.0672607</ele>
        <time>2013-07-07T07:08:54Z</time>
      </trkpt>
      <trkpt lat="46.58269" lon="4.8229">
        <ele>476.9512939</ele>
        <time>2013-07-07T07:09:10Z</time>
      </trkpt>
      <trkpt lat="46.58261" lon="4.82243">
        <ele>476.4705811</ele>
        <time>2013-07-07T07:09:26Z</time>
      </trkpt>
      <trkpt lat="46.58259" lon="4.8223">
        <ele>475.9898682</ele>
        <time>2013-07-07T07:09:46Z</time>
      </trkpt>
      <trkpt lat="46.58257" lon="4.82225">
        <ele>475.9898682</ele>
        <time>2013-07-07T07:10:04Z</time>
      </trkpt>
      <trkpt lat="46.58254" lon="4.82221">
        <ele>475.9898682</ele>
        <time>2013-07-07T07:10:16Z</time>
      </trkpt>
      <trkpt lat="46.58251" lon="4.82211">
        <ele>475.9898682</ele>
        <time>2013-07-07T07:10:31Z</time>
      </trkpt>
      <trkpt lat="46.58251" lon="4.82194">
        <ele>476.4705811</ele>
        <time>2013-07-07T07:10:45Z</time>
      </trkpt>
      <trkpt lat="46.58247" lon="4.82188">
        <ele>476.9512939</ele>
        <time>2013-07-07T07:10:49Z</time>
      </trkpt>
      <trkpt lat="46.58245" lon="4.82179">
        <ele>476.4705811</ele>
        <time>2013-07-07T07:10:53Z</time>
      </trkpt>
      <trkpt lat="46.58242" lon="4.82172">
        <ele>477.4318848</ele>
        <time>2013-07-07T07:10:57Z</time>
      </trkpt>
      <trkpt lat="46.58237" lon="4.82156">
        <ele>477.4318848</ele>
        <time>2013-07-07T07:11:03Z</time>
      </trkpt>
      <trkpt lat="46.58233" lon="4.82134">
        <ele>478.8739014</ele>
        <time>2013-07-07T07:11:15Z</time>
      </trkpt>
      <trkpt lat="46.58232" lon="4.8212">
        <ele>478.3931885</ele>
        <time>2013-07-07T07:11:26Z</time>
      </trkpt>
      <trkpt lat="46.58232" lon="4.82106">
        <ele>478.3931885</ele>
        <time>2013-07-07T07:11:36Z</time>
      </trkpt>
      <trkpt lat="46.58218" lon="4.8209">
        <ele>479.3544922</ele>
        <time>2013-07-07T07:11:56Z</time>
      </trkpt>
      <trkpt lat="46.58216" lon="4.82084">
        <ele>478.8739014</ele>
        <time>2013-07-07T07:12:00Z</time>
      </trkpt>
      <trkpt lat="46.58214" lon="4.82076">
        <ele>478.8739014</ele>
        <time>2013-07-07T07:12:07Z</time>
      </trkpt>
      <trkpt lat="46.58212" lon="4.82069">
        <ele>479.3544922</ele>
        <time>2013-07-07T07:12:12Z</time>
      </trkpt>
      <trkpt lat="46.58211" lon="4.82056">
        <ele>478.8739014</ele>
        <time>2013-07-07T07:12:20Z</time>
      </trkpt>
      <trkpt lat="46.58209" lon="4.82047">
        <ele>478.8739014</ele>
        <time>2013-07-07T07:12:26Z</time>
      </trkpt>
      <trkpt lat="46.58204" lon="4.82037">
        <ele>478.3931885</ele>
        <time>2013-07-07T07:12:41Z</time>
      </trkpt>
      <trkpt lat="46.58203" lon="4.82037">
        <ele>478.8739014</ele>
        <time>2013-07-07T07:12:43Z</time>
      </trkpt>
      <trkpt lat="46.58201" lon="4.82032">
        <ele>478.3931885</ele>
        <time>2013-07-07T07:12:46Z</time>
      </trkpt>
      <trkpt lat="46.58198" lon="4.82029">
        <ele>478.3931885</ele>
        <time>2013-07-07T07:12:50Z</time>
      </trkpt>
      <trkpt lat="46.58193" lon="4.82024">
        <ele>478.8739014</ele>
        <time>2013-07-07T07:12:53Z</time>
      </trkpt>
      <trkpt lat="46.58189" lon="4.82019">
        <ele>478.3931885</ele>
        <time>2013-07-07T07:12:59Z</time>
      </trkpt>
      <trkpt lat="46.58187" lon="4.82012">
        <ele>478.8739014</ele>
        <time>2013-07-07T07:13:07Z</time>
      </trkpt>
      <trkpt lat="46.58182" lon="4.82002">
        <ele>478.8739014</ele>
        <time>2013-07-07T07:13:17Z</time>
      </trkpt>
      <trkpt lat="46.58175" lon="4.81988">
        <ele>479.3544922</ele>
        <time>2013-07-07T07:13:30Z</time>
      </trkpt>
      <trkpt lat="46.5817" lon="4.8198">
        <ele>479.835083</ele>
        <time>2013-07-07T07:13:37Z</time>
      </trkpt>
      <trkpt lat="46.58167" lon="4.81977">
        <ele>479.835083</ele>
        <time>2013-07-07T07:13:40Z</time>
      </trkpt>
      <trkpt lat="46.58168" lon="4.81971">
        <ele>479.835083</ele>
        <time>2013-07-07T07:13:44Z</time>
      </trkpt>
      <trkpt lat="46.58161" lon="4.81962">
        <ele>479.835083</ele>
        <time>2013-07-07T07:13:52Z</time>
      </trkpt>
      <trkpt lat="46.58154" lon="4.8195">
        <ele>479.835083</ele>
        <time>2013-07-07T07:14:07Z</time>
      </trkpt>
      <trkpt lat="46.58151" lon="4.81946">
        <ele>478.8739014</ele>
        <time>2013-07-07T07:14:12Z</time>
      </trkpt>
      <trkpt lat="46.5813" lon="4.81927">
        <ele>478.8739014</ele>
        <time>2013-07-07T07:14:23Z</time>
      </trkpt>
      <trkpt lat="46.58128" lon="4.81926">
        <ele>479.3544922</ele>
        <time>2013-07-07T07:14:25Z</time>
      </trkpt>
      <trkpt lat="46.5811" lon="4.81913">
        <ele>478.8739014</ele>
        <time>2013-07-07T07:14:37Z</time>
      </trkpt>
      <trkpt lat="46.58108" lon="4.81908">
        <ele>479.835083</ele>
        <time>2013-07-07T07:14:41Z</time>
      </trkpt>
      <trkpt lat="46.58101" lon="4.81904">
        <ele>479.3544922</ele>
        <time>2013-07-07T07:14:44Z</time>
      </trkpt>
      <trkpt lat="46.58095" lon="4.81902">
        <ele>478.8739014</ele>
        <time>2013-07-07T07:14:47Z</time>
      </trkpt>
      <trkpt lat="46.58071" lon="4.81897">
        <ele>477.4318848</ele>
        <time>2013-07-07T07:14:57Z</time>
      </trkpt>
      <trkpt lat="46.5804" lon="4.81874">
        <ele>474.5479736</ele>
        <time>2013-07-07T07:15:05Z</time>
      </trkpt>
      <trkpt lat="46.57989" lon="4.81869">
        <ele>474.5479736</ele>
        <time>2013-07-07T07:15:15Z</time>
      </trkpt>
      <trkpt lat="46.57958" lon="4.81866">
        <ele>471.6639404</ele>
        <time>2013-07-07T07:15:26Z</time>
      </trkpt>
      <trkpt lat="46.57938" lon="4.81849">
        <ele>468.2993164</ele>
        <time>2013-07-07T07:15:38Z</time>
      </trkpt>
      <trkpt lat="46.57918" lon="4.81838">
        <ele>464.9348145</ele>
        <time>2013-07-07T07:15:50Z</time>
      </trkpt>
      <trkpt lat="46.57911" lon="4.81835">
        <ele>463.9733887</ele>
        <time>2013-07-07T07:15:54Z</time>
      </trkpt>
      <trkpt lat="46.579" lon="4.81831">
        <ele>460.6087646</ele>
        <time>2013-07-07T07:16:03Z</time>
      </trkpt>
      <trkpt lat="46.57885" lon="4.81828">
        <ele>458.6861572</ele>
        <time>2013-07-07T07:16:13Z</time>
      </trkpt>
      <trkpt lat="46.57865" lon="4.81834">
        <ele>455.8022461</ele>
        <time>2013-07-07T07:16:20Z</time>
      </trkpt>
      <trkpt lat="46.57847" lon="4.81832">
        <ele>452.9182129</ele>
        <time>2013-07-07T07:16:26Z</time>
      </trkpt>
      <trkpt lat="46.57844" lon="4.81831">
        <ele>452.9182129</ele>
        <time>2013-07-07T07:16:27Z</time>
      </trkpt>
      <trkpt lat="46.57829" lon="4.81825">
        <ele>451.4763184</ele>
        <time>2013-07-07T07:16:31Z</time>
      </trkpt>
      <trkpt lat="46.57811" lon="4.81821">
        <ele>450.5150146</ele>
        <time>2013-07-07T07:16:36Z</time>
      </trkpt>
      <trkpt lat="46.57798" lon="4.81811">
        <ele>449.072998</ele>
        <time>2013-07-07T07:16:41Z</time>
      </trkpt>
      <trkpt lat="46.57761" lon="4.81806">
        <ele>448.5924072</ele>
        <time>2013-07-07T07:16:52Z</time>
      </trkpt>
      <trkpt lat="46.57732" lon="4.81794">
        <ele>449.072998</ele>
        <time>2013-07-07T07:17:02Z</time>
      </trkpt>
      <trkpt lat="46.57724" lon="4.81788">
        <ele>448.5924072</ele>
        <time>2013-07-07T07:17:12Z</time>
      </trkpt>
      <trkpt lat="46.57724" lon="4.81788">
        <ele>448.5924072</ele>
        <time>2013-07-07T07:17:13Z</time>
      </trkpt>
      <trkpt lat="46.57724" lon="4.81788">
        <ele>449.072998</ele>
        <time>2013-07-07T07:17:18Z</time>
      </trkpt>
      <trkpt lat="46.57724" lon="4.81788">
        <ele>449.072998</ele>
        <time>2013-07-07T07:17:30Z</time>
      </trkpt>
      <trkpt lat="46.57724" lon="4.81788">
        <ele>449.072998</ele>
        <time>2013-07-07T07:17:31Z</time>
      </trkpt>
      <trkpt lat="46.57691" lon="4.81792">
        <ele>449.072998</ele>
        <time>2013-07-07T07:17:36Z</time>
      </trkpt>
      <trkpt lat="46.57664" lon="4.81785">
        <ele>449.072998</ele>
        <time>2013-07-07T07:17:49Z</time>
      </trkpt>
      <trkpt lat="46.57646" lon="4.81776">
        <ele>448.5924072</ele>
        <time>2013-07-07T07:17:57Z</time>
      </trkpt>
      <trkpt lat="46.57619" lon="4.81766">
        <ele>448.5924072</ele>
        <time>2013-07-07T07:18:09Z</time>
      </trkpt>
      <trkpt lat="46.57592" lon="4.81757">
        <ele>448.1118164</ele>
        <time>2013-07-07T07:18:21Z</time>
      </trkpt>
      <trkpt lat="46.57562" lon="4.81742">
        <ele>448.5924072</ele>
        <time>2013-07-07T07:18:33Z</time>
      </trkpt>
      <trkpt lat="46.57521" lon="4.81727">
        <ele>449.072998</ele>
        <time>2013-07-07T07:18:47Z</time>
      </trkpt>
      <trkpt lat="46.57516" lon="4.81727">
        <ele>449.072998</ele>
        <time>2013-07-07T07:18:49Z</time>
      </trkpt>
      <trkpt lat="46.57496" lon="4.81744">
        <ele>449.5537109</ele>
        <time>2013-07-07T07:18:59Z</time>
      </trkpt>
      <trkpt lat="46.57488" lon="4.81768">
        <ele>448.5924072</ele>
        <time>2013-07-07T07:19:07Z</time>
      </trkpt>
      <trkpt lat="46.57454" lon="4.81805">
        <ele>445.2276611</ele>
        <time>2013-07-07T07:19:19Z</time>
      </trkpt>
      <trkpt lat="46.57441" lon="4.81841">
        <ele>442.3438721</ele>
        <time>2013-07-07T07:19:28Z</time>
      </trkpt>
      <trkpt lat="46.57441" lon="4.81848">
        <ele>441.3824463</ele>
        <time>2013-07-07T07:19:30Z</time>
      </trkpt>
      <trkpt lat="46.57439" lon="4.81869">
        <ele>438.979126</ele>
        <time>2013-07-07T07:19:37Z</time>
      </trkpt>
      <trkpt lat="46.57438" lon="4.81875">
        <ele>438.4985352</ele>
        <time>2013-07-07T07:19:39Z</time>
      </trkpt>
      <trkpt lat="46.57432" lon="4.81885">
        <ele>437.5371094</ele>
        <time>2013-07-07T07:19:42Z</time>
      </trkpt>
      <trkpt lat="46.57403" lon="4.81884">
        <ele>434.1726074</ele>
        <time>2013-07-07T07:19:52Z</time>
      </trkpt>
      <trkpt lat="46.574" lon="4.81884">
        <ele>434.1726074</ele>
        <time>2013-07-07T07:19:53Z</time>
      </trkpt>
      <trkpt lat="46.57382" lon="4.81881">
        <ele>432.7307129</ele>
        <time>2013-07-07T07:19:58Z</time>
      </trkpt>
      <trkpt lat="46.57374" lon="4.8188">
        <ele>432.25</ele>
        <time>2013-07-07T07:20:00Z</time>
      </trkpt>
      <trkpt lat="46.5734" lon="4.81861">
        <ele>428.885376</ele>
        <time>2013-07-07T07:20:10Z</time>
      </trkpt>
      <trkpt lat="46.57284" lon="4.81814">
        <ele>428.4046631</ele>
        <time>2013-07-07T07:20:27Z</time>
      </trkpt>
      <trkpt lat="46.57239" lon="4.81789">
        <ele>426.9627686</ele>
        <time>2013-07-07T07:20:39Z</time>
      </trkpt>
      <trkpt lat="46.57233" lon="4.81786">
        <ele>426.4820557</ele>
        <time>2013-07-07T07:20:41Z</time>
      </trkpt>
      <trkpt lat="46.5721" lon="4.81775">
        <ele>423.5980225</ele>
        <time>2013-07-07T07:20:46Z</time>
      </trkpt>
      <trkpt lat="46.5717" lon="4.81745">
        <ele>422.6367188</ele>
        <time>2013-07-07T07:20:57Z</time>
      </trkpt>
      <trkpt lat="46.57112" lon="4.81694">
        <ele>422.6367188</ele>
        <time>2013-07-07T07:21:14Z</time>
      </trkpt>
      <trkpt lat="46.57083" lon="4.81673">
        <ele>424.5594482</ele>
        <time>2013-07-07T07:21:27Z</time>
      </trkpt>
      <trkpt lat="46.57081" lon="4.81673">
        <ele>424.0787354</ele>
        <time>2013-07-07T07:22:09Z</time>
      </trkpt>
      <trkpt lat="46.57081" lon="4.81673">
        <ele>424.0787354</ele>
        <time>2013-07-07T07:22:29Z</time>
      </trkpt>
      <trkpt lat="46.5706" lon="4.81675">
        <ele>421.675415</ele>
        <time>2013-07-07T07:23:07Z</time>
      </trkpt>
      <trkpt lat="46.5703" lon="4.8168">
        <ele>419.2722168</ele>
        <time>2013-07-07T07:23:15Z</time>
      </trkpt>
      <trkpt lat="46.57005" lon="4.81688">
        <ele>417.3496094</ele>
        <time>2013-07-07T07:23:25Z</time>
      </trkpt>
      <trkpt lat="46.56957" lon="4.81654">
        <ele>416.3881836</ele>
        <time>2013-07-07T07:23:40Z</time>
      </trkpt>
      <trkpt lat="46.56915" lon="4.8162">
        <ele>412.5428467</ele>
        <time>2013-07-07T07:23:48Z</time>
      </trkpt>
      <trkpt lat="46.56909" lon="4.81615">
        <ele>412.5428467</ele>
        <time>2013-07-07T07:23:49Z</time>
      </trkpt>
      <trkpt lat="46.56889" lon="4.81598">
        <ele>411.1009521</ele>
        <time>2013-07-07T07:23:52Z</time>
      </trkpt>
      <trkpt lat="46.56875" lon="4.81587">
        <ele>409.1783447</ele>
        <time>2013-07-07T07:23:54Z</time>
      </trkpt>
      <trkpt lat="46.56822" lon="4.81542">
        <ele>408.217041</ele>
        <time>2013-07-07T07:24:04Z</time>
      </trkpt>
      <trkpt lat="46.56819" lon="4.8154">
        <ele>408.217041</ele>
        <time>2013-07-07T07:24:05Z</time>
      </trkpt>
      <trkpt lat="46.56769" lon="4.81547">
        <ele>410.1396484</ele>
        <time>2013-07-07T07:24:18Z</time>
      </trkpt>
      <trkpt lat="46.56731" lon="4.81553">
        <ele>410.1396484</ele>
        <time>2013-07-07T07:24:30Z</time>
      </trkpt>
      <trkpt lat="46.56665" lon="4.81514">
        <ele>409.1783447</ele>
        <time>2013-07-07T07:24:47Z</time>
      </trkpt>
      <trkpt lat="46.56613" lon="4.81493">
        <ele>409.1783447</ele>
        <time>2013-07-07T07:25:01Z</time>
      </trkpt>
      <trkpt lat="46.56568" lon="4.81476">
        <ele>407.7363281</ele>
        <time>2013-07-07T07:25:13Z</time>
      </trkpt>
      <trkpt lat="46.56533" lon="4.81462">
        <ele>407.2556152</ele>
        <time>2013-07-07T07:25:26Z</time>
      </trkpt>
      <trkpt lat="46.56524" lon="4.81458">
        <ele>406.7749023</ele>
        <time>2013-07-07T07:25:36Z</time>
      </trkpt>
      <trkpt lat="46.56508" lon="4.81451">
        <ele>407.2556152</ele>
        <time>2013-07-07T07:25:49Z</time>
      </trkpt>
      <trkpt lat="46.56493" lon="4.81444">
        <ele>406.7749023</ele>
        <time>2013-07-07T07:26:04Z</time>
      </trkpt>
      <trkpt lat="46.56476" lon="4.81436">
        <ele>407.2556152</ele>
        <time>2013-07-07T07:26:14Z</time>
      </trkpt>
      <trkpt lat="46.56446" lon="4.81424">
        <ele>408.217041</ele>
        <time>2013-07-07T07:26:23Z</time>
      </trkpt>
      <trkpt lat="46.56369" lon="4.81402">
        <ele>408.6976318</ele>
        <time>2013-07-07T07:26:42Z</time>
      </trkpt>
      <trkpt lat="46.56304" lon="4.8139">
        <ele>407.7363281</ele>
        <time>2013-07-07T07:26:59Z</time>
      </trkpt>
      <trkpt lat="46.56279" lon="4.81384">
        <ele>406.2943115</ele>
        <time>2013-07-07T07:27:05Z</time>
      </trkpt>
      <trkpt lat="46.56215" lon="4.81371">
        <ele>403.4104004</ele>
        <time>2013-07-07T07:27:20Z</time>
      </trkpt>
      <trkpt lat="46.56178" lon="4.81375">
        <ele>402.4490967</ele>
        <time>2013-07-07T07:27:28Z</time>
      </trkpt>
      <trkpt lat="46.56174" lon="4.81376">
        <ele>402.9296875</ele>
        <time>2013-07-07T07:27:41Z</time>
      </trkpt>
      <trkpt lat="46.56174" lon="4.81376">
        <ele>402.4490967</ele>
        <time>2013-07-07T07:27:46Z</time>
      </trkpt>
      <trkpt lat="46.56162" lon="4.81378">
        <ele>402.4490967</ele>
        <time>2013-07-07T07:27:58Z</time>
      </trkpt>
      <trkpt lat="46.56162" lon="4.81378">
        <ele>402.4490967</ele>
        <time>2013-07-07T07:28:03Z</time>
      </trkpt>
      <trkpt lat="46.56133" lon="4.81381">
        <ele>402.9296875</ele>
        <time>2013-07-07T07:28:13Z</time>
      </trkpt>
      <trkpt lat="46.56133" lon="4.81381">
        <ele>402.9296875</ele>
        <time>2013-07-07T07:28:14Z</time>
      </trkpt>
      <trkpt lat="46.56123" lon="4.81381">
        <ele>403.4104004</ele>
        <time>2013-07-07T07:28:16Z</time>
      </trkpt>
      <trkpt lat="46.56108" lon="4.81381">
        <ele>404.8522949</ele>
        <time>2013-07-07T07:28:28Z</time>
      </trkpt>
      <trkpt lat="46.56108" lon="4.81381">
        <ele>405.8137207</ele>
        <time>2013-07-07T07:28:34Z</time>
      </trkpt>
      <trkpt lat="46.56072" lon="4.81369">
        <ele>406.7749023</ele>
        <time>2013-07-07T07:28:42Z</time>
      </trkpt>
      <trkpt lat="46.56046" lon="4.81355">
        <ele>406.2943115</ele>
        <time>2013-07-07T07:28:53Z</time>
      </trkpt>
      <trkpt lat="46.56028" lon="4.81346">
        <ele>406.7749023</ele>
        <time>2013-07-07T07:28:58Z</time>
      </trkpt>
      <trkpt lat="46.56018" lon="4.81341">
        <ele>406.2943115</ele>
        <time>2013-07-07T07:29:02Z</time>
      </trkpt>
      <trkpt lat="46.56008" lon="4.81336">
        <ele>406.7749023</ele>
        <time>2013-07-07T07:29:06Z</time>
      </trkpt>
      <trkpt lat="46.55978" lon="4.8132">
        <ele>406.2943115</ele>
        <time>2013-07-07T07:29:17Z</time>
      </trkpt>
      <trkpt lat="46.55951" lon="4.81308">
        <ele>406.7749023</ele>
        <time>2013-07-07T07:29:26Z</time>
      </trkpt>
      <trkpt lat="46.5594" lon="4.81303">
        <ele>405.3330078</ele>
        <time>2013-07-07T07:29:30Z</time>
      </trkpt>
      <trkpt lat="46.55933" lon="4.81299">
        <ele>405.3330078</ele>
        <time>2013-07-07T07:29:34Z</time>
      </trkpt>
      <trkpt lat="46.55919" lon="4.81291">
        <ele>404.8522949</ele>
        <time>2013-07-07T07:29:40Z</time>
      </trkpt>
      <trkpt lat="46.55887" lon="4.81258">
        <ele>401.9685059</ele>
        <time>2013-07-07T07:29:52Z</time>
      </trkpt>
      <trkpt lat="46.55856" lon="4.81239">
        <ele>401.487793</ele>
        <time>2013-07-07T07:30:01Z</time>
      </trkpt>
      <trkpt lat="46.5583" lon="4.81224">
        <ele>401.0070801</ele>
        <time>2013-07-07T07:30:08Z</time>
      </trkpt>
      <trkpt lat="46.55786" lon="4.81165">
        <ele>400.0458984</ele>
        <time>2013-07-07T07:30:21Z</time>
      </trkpt>
      <trkpt lat="46.55774" lon="4.81148">
        <ele>399.5650635</ele>
        <time>2013-07-07T07:30:25Z</time>
      </trkpt>
      <trkpt lat="46.55748" lon="4.8113">
        <ele>398.1231689</ele>
        <time>2013-07-07T07:30:30Z</time>
      </trkpt>
      <trkpt lat="46.55718" lon="4.81115">
        <ele>398.1231689</ele>
        <time>2013-07-07T07:30:34Z</time>
      </trkpt>
      <trkpt lat="46.55679" lon="4.81094">
        <ele>397.1617432</ele>
        <time>2013-07-07T07:30:42Z</time>
      </trkpt>
      <trkpt lat="46.55666" lon="4.81087">
        <ele>397.1617432</ele>
        <time>2013-07-07T07:30:46Z</time>
      </trkpt>
      <trkpt lat="46.55654" lon="4.81077">
        <ele>396.6811523</ele>
        <time>2013-07-07T07:30:50Z</time>
      </trkpt>
      <trkpt lat="46.55633" lon="4.8106">
        <ele>396.2005615</ele>
        <time>2013-07-07T07:30:55Z</time>
      </trkpt>
      <trkpt lat="46.55595" lon="4.81037">
        <ele>397.1617432</ele>
        <time>2013-07-07T07:31:08Z</time>
      </trkpt>
      <trkpt lat="46.55582" lon="4.8103">
        <ele>396.6811523</ele>
        <time>2013-07-07T07:31:13Z</time>
      </trkpt>
      <trkpt lat="46.55566" lon="4.81019">
        <ele>397.1617432</ele>
        <time>2013-07-07T07:31:21Z</time>
      </trkpt>
      <trkpt lat="46.55545" lon="4.81">
        <ele>397.6424561</ele>
        <time>2013-07-07T07:31:31Z</time>
      </trkpt>
      <trkpt lat="46.55522" lon="4.80978">
        <ele>398.1231689</ele>
        <time>2013-07-07T07:31:45Z</time>
      </trkpt>
      <trkpt lat="46.55514" lon="4.8097">
        <ele>398.6037598</ele>
        <time>2013-07-07T07:31:54Z</time>
      </trkpt>
      <trkpt lat="46.55474" lon="4.80939">
        <ele>398.1231689</ele>
        <time>2013-07-07T07:32:06Z</time>
      </trkpt>
      <trkpt lat="46.55454" lon="4.80928">
        <ele>398.6037598</ele>
        <time>2013-07-07T07:32:17Z</time>
      </trkpt>
      <trkpt lat="46.5543" lon="4.80922">
        <ele>398.1231689</ele>
        <time>2013-07-07T07:32:27Z</time>
      </trkpt>
      <trkpt lat="46.55417" lon="4.80918">
        <ele>398.1231689</ele>
        <time>2013-07-07T07:32:35Z</time>
      </trkpt>
      <trkpt lat="46.55393" lon="4.80906">
        <ele>398.1231689</ele>
        <time>2013-07-07T07:32:48Z</time>
      </trkpt>
      <trkpt lat="46.55379" lon="4.80898">
        <ele>398.1231689</ele>
        <time>2013-07-07T07:32:59Z</time>
      </trkpt>
      <trkpt lat="46.55371" lon="4.80893">
        <ele>398.1231689</ele>
        <time>2013-07-07T07:33:02Z</time>
      </trkpt>
      <trkpt lat="46.55352" lon="4.80883">
        <ele>398.6037598</ele>
        <time>2013-07-07T07:33:12Z</time>
      </trkpt>
      <trkpt lat="46.5533" lon="4.8087">
        <ele>399.5650635</ele>
        <time>2013-07-07T07:33:23Z</time>
      </trkpt>
      <trkpt lat="46.55315" lon="4.80862">
        <ele>399.5650635</ele>
        <time>2013-07-07T07:33:29Z</time>
      </trkpt>
      <trkpt lat="46.55286" lon="4.80846">
        <ele>401.487793</ele>
        <time>2013-07-07T07:33:41Z</time>
      </trkpt>
      <trkpt lat="46.55264" lon="4.80836">
        <ele>402.9296875</ele>
        <time>2013-07-07T07:33:56Z</time>
      </trkpt>
      <trkpt lat="46.55264" lon="4.80836">
        <ele>402.9296875</ele>
        <time>2013-07-07T07:33:57Z</time>
      </trkpt>
      <trkpt lat="46.55231" lon="4.80827">
        <ele>401.0070801</ele>
        <time>2013-07-07T07:34:07Z</time>
      </trkpt>
      <trkpt lat="46.55201" lon="4.80821">
        <ele>399.5650635</ele>
        <time>2013-07-07T07:34:15Z</time>
      </trkpt>
      <trkpt lat="46.5514" lon="4.80794">
        <ele>397.1617432</ele>
        <time>2013-07-07T07:34:26Z</time>
      </trkpt>
      <trkpt lat="46.55134" lon="4.8079">
        <ele>397.1617432</ele>
        <time>2013-07-07T07:34:27Z</time>
      </trkpt>
      <trkpt lat="46.55117" lon="4.80777">
        <ele>396.2005615</ele>
        <time>2013-07-07T07:34:31Z</time>
      </trkpt>
      <trkpt lat="46.55082" lon="4.80751">
        <ele>392.8359375</ele>
        <time>2013-07-07T07:34:42Z</time>
      </trkpt>
      <trkpt lat="46.55057" lon="4.80733">
        <ele>389.4711914</ele>
        <time>2013-07-07T07:34:49Z</time>
      </trkpt>
      <trkpt lat="46.55013" lon="4.80702">
        <ele>387.548584</ele>
        <time>2013-07-07T07:34:58Z</time>
      </trkpt>
      <trkpt lat="46.55005" lon="4.80697">
        <ele>388.0292969</ele>
        <time>2013-07-07T07:35:00Z</time>
      </trkpt>
      <trkpt lat="46.54973" lon="4.80673">
        <ele>388.0292969</ele>
        <time>2013-07-07T07:35:06Z</time>
      </trkpt>
      <trkpt lat="46.54951" lon="4.80657">
        <ele>387.0679932</ele>
        <time>2013-07-07T07:35:10Z</time>
      </trkpt>
      <trkpt lat="46.54898" lon="4.80621">
        <ele>385.6259766</ele>
        <time>2013-07-07T07:35:20Z</time>
      </trkpt>
      <trkpt lat="46.54837" lon="4.80578">
        <ele>382.2613525</ele>
        <time>2013-07-07T07:35:33Z</time>
      </trkpt>
      <trkpt lat="46.54831" lon="4.80573">
        <ele>382.2613525</ele>
        <time>2013-07-07T07:35:34Z</time>
      </trkpt>
      <trkpt lat="46.54758" lon="4.80515">
        <ele>378.8968506</ele>
        <time>2013-07-07T07:35:48Z</time>
      </trkpt>
      <trkpt lat="46.5472" lon="4.80486">
        <ele>379.3774414</ele>
        <time>2013-07-07T07:35:59Z</time>
      </trkpt>
      <trkpt lat="46.5472" lon="4.80486">
        <ele>379.8580322</ele>
        <time>2013-07-07T07:36:12Z</time>
      </trkpt>
      <trkpt lat="46.54698" lon="4.8047">
        <ele>378.8968506</ele>
        <time>2013-07-07T07:36:26Z</time>
      </trkpt>
      <trkpt lat="46.54684" lon="4.80461">
        <ele>378.8968506</ele>
        <time>2013-07-07T07:36:38Z</time>
      </trkpt>
      <trkpt lat="46.54674" lon="4.80454">
        <ele>379.3774414</ele>
        <time>2013-07-07T07:36:44Z</time>
      </trkpt>
      <trkpt lat="46.5466" lon="4.80444">
        <ele>378.8968506</ele>
        <time>2013-07-07T07:36:59Z</time>
      </trkpt>
      <trkpt lat="46.54658" lon="4.80443">
        <ele>379.3774414</ele>
        <time>2013-07-07T07:37:03Z</time>
      </trkpt>
      <trkpt lat="46.54658" lon="4.80443">
        <ele>378.8968506</ele>
        <time>2013-07-07T07:37:17Z</time>
      </trkpt>
      <trkpt lat="46.54619" lon="4.80417">
        <ele>378.8968506</ele>
        <time>2013-07-07T07:37:30Z</time>
      </trkpt>
      <trkpt lat="46.54588" lon="4.80387">
        <ele>377.454834</ele>
        <time>2013-07-07T07:37:40Z</time>
      </trkpt>
      <trkpt lat="46.54557" lon="4.8036">
        <ele>377.454834</ele>
        <time>2013-07-07T07:37:48Z</time>
      </trkpt>
      <trkpt lat="46.54532" lon="4.80349">
        <ele>377.454834</ele>
        <time>2013-07-07T07:37:53Z</time>
      </trkpt>
      <trkpt lat="46.54516" lon="4.80338">
        <ele>376.9742432</ele>
        <time>2013-07-07T07:37:57Z</time>
      </trkpt>
      <trkpt lat="46.54482" lon="4.803">
        <ele>375.0515137</ele>
        <time>2013-07-07T07:38:07Z</time>
      </trkpt>
      <trkpt lat="46.5446" lon="4.80285">
        <ele>373.1289063</ele>
        <time>2013-07-07T07:38:12Z</time>
      </trkpt>
      <trkpt lat="46.5443" lon="4.80258">
        <ele>370.244873</ele>
        <time>2013-07-07T07:38:21Z</time>
      </trkpt>
      <trkpt lat="46.54422" lon="4.80251">
        <ele>369.2836914</ele>
        <time>2013-07-07T07:38:23Z</time>
      </trkpt>
      <trkpt lat="46.54384" lon="4.80221">
        <ele>364.9576416</ele>
        <time>2013-07-07T07:38:33Z</time>
      </trkpt>
      <trkpt lat="46.54359" lon="4.80203">
        <ele>365.4383545</ele>
        <time>2013-07-07T07:38:40Z</time>
      </trkpt>
      <trkpt lat="46.54376" lon="4.80113">
        <ele>365.4383545</ele>
        <time>2013-07-07T07:38:55Z</time>
      </trkpt>
      <trkpt lat="46.54379" lon="4.80079">
        <ele>363.9963379</ele>
        <time>2013-07-07T07:39:48Z</time>
      </trkpt>
      <trkpt lat="46.54381" lon="4.80062">
        <ele>362.5543213</ele>
        <time>2013-07-07T07:39:51Z</time>
      </trkpt>
      <trkpt lat="46.54386" lon="4.80051">
        <ele>361.1124268</ele>
        <time>2013-07-07T07:39:53Z</time>
      </trkpt>
      <trkpt lat="46.54388" lon="4.80046">
        <ele>360.151123</ele>
        <time>2013-07-07T07:39:54Z</time>
      </trkpt>
      <trkpt lat="46.5441" lon="4.8002">
        <ele>357.7478027</ele>
        <time>2013-07-07T07:40:00Z</time>
      </trkpt>
      <trkpt lat="46.54423" lon="4.80003">
        <ele>355.8251953</ele>
        <time>2013-07-07T07:40:04Z</time>
      </trkpt>
      <trkpt lat="46.5443" lon="4.79982">
        <ele>354.8637695</ele>
        <time>2013-07-07T07:40:14Z</time>
      </trkpt>
      <trkpt lat="46.5443" lon="4.79982">
        <ele>354.8637695</ele>
        <time>2013-07-07T07:40:37Z</time>
      </trkpt>
      <trkpt lat="46.54444" lon="4.79963">
        <ele>352.9411621</ele>
        <time>2013-07-07T07:40:44Z</time>
      </trkpt>
      <trkpt lat="46.54497" lon="4.79902">
        <ele>354.8637695</ele>
        <time>2013-07-07T07:41:02Z</time>
      </trkpt>
      <trkpt lat="46.54504" lon="4.79897">
        <ele>354.8637695</ele>
        <time>2013-07-07T07:41:04Z</time>
      </trkpt>
      <trkpt lat="46.54566" lon="4.79859">
        <ele>353.421875</ele>
        <time>2013-07-07T07:41:19Z</time>
      </trkpt>
      <trkpt lat="46.5463" lon="4.79788">
        <ele>350.057251</ele>
        <time>2013-07-07T07:41:33Z</time>
      </trkpt>
      <trkpt lat="46.5467" lon="4.79721">
        <ele>350.5378418</ele>
        <time>2013-07-07T07:41:44Z</time>
      </trkpt>
      <trkpt lat="46.54683" lon="4.79711">
        <ele>351.9798584</ele>
        <time>2013-07-07T07:41:48Z</time>
      </trkpt>
      <trkpt lat="46.54707" lon="4.79718">
        <ele>354.3831787</ele>
        <time>2013-07-07T07:41:56Z</time>
      </trkpt>
      <trkpt lat="46.54709" lon="4.79718">
        <ele>354.8637695</ele>
        <time>2013-07-07T07:41:57Z</time>
      </trkpt>
      <trkpt lat="46.54721" lon="4.79703">
        <ele>355.3444824</ele>
        <time>2013-07-07T07:42:02Z</time>
      </trkpt>
      <trkpt lat="46.54724" lon="4.79671">
        <ele>357.2670898</ele>
        <time>2013-07-07T07:42:12Z</time>
      </trkpt>
      <trkpt lat="46.54729" lon="4.79668">
        <ele>357.7478027</ele>
        <time>2013-07-07T07:42:16Z</time>
      </trkpt>
      <trkpt lat="46.5473" lon="4.79668">
        <ele>358.2283936</ele>
        <time>2013-07-07T07:42:18Z</time>
      </trkpt>
      <trkpt lat="46.54739" lon="4.79658">
        <ele>358.7089844</ele>
        <time>2013-07-07T07:42:23Z</time>
      </trkpt>
      <trkpt lat="46.54749" lon="4.79625">
        <ele>362.5543213</ele>
        <time>2013-07-07T07:42:42Z</time>
      </trkpt>
      <trkpt lat="46.54751" lon="4.79616">
        <ele>363.0350342</ele>
        <time>2013-07-07T07:42:47Z</time>
      </trkpt>
      <trkpt lat="46.54757" lon="4.79581">
        <ele>365.9189453</ele>
        <time>2013-07-07T07:43:08Z</time>
      </trkpt>
      <trkpt lat="46.54776" lon="4.79575">
        <ele>367.3609619</ele>
        <time>2013-07-07T07:43:25Z</time>
      </trkpt>
      <trkpt lat="46.54801" lon="4.7955">
        <ele>367.3609619</ele>
        <time>2013-07-07T07:43:40Z</time>
      </trkpt>
      <trkpt lat="46.54805" lon="4.79543">
        <ele>367.3609619</ele>
        <time>2013-07-07T07:43:52Z</time>
      </trkpt>
      <trkpt lat="46.54806" lon="4.79544">
        <ele>368.3222656</ele>
        <time>2013-07-07T07:44:38Z</time>
      </trkpt>
      <trkpt lat="46.5481" lon="4.79552">
        <ele>367.3609619</ele>
        <time>2013-07-07T07:44:44Z</time>
      </trkpt>
      <trkpt lat="46.54809" lon="4.79556">
        <ele>367.8415527</ele>
        <time>2013-07-07T07:44:47Z</time>
      </trkpt>
      <trkpt lat="46.548" lon="4.79559">
        <ele>368.3222656</ele>
        <time>2013-07-07T07:44:54Z</time>
      </trkpt>
      <trkpt lat="46.54788" lon="4.7957">
        <ele>368.8029785</ele>
        <time>2013-07-07T07:45:02Z</time>
      </trkpt>
      <trkpt lat="46.54768" lon="4.79571">
        <ele>367.3609619</ele>
        <time>2013-07-07T07:45:09Z</time>
      </trkpt>
      <trkpt lat="46.54755" lon="4.79583">
        <ele>366.3995361</ele>
        <time>2013-07-07T07:45:15Z</time>
      </trkpt>
      <trkpt lat="46.54746" lon="4.79624">
        <ele>363.9963379</ele>
        <time>2013-07-07T07:45:27Z</time>
      </trkpt>
      <trkpt lat="46.54738" lon="4.7965">
        <ele>361.1124268</ele>
        <time>2013-07-07T07:45:34Z</time>
      </trkpt>
      <trkpt lat="46.54735" lon="4.79667">
        <ele>359.6704102</ele>
        <time>2013-07-07T07:45:39Z</time>
      </trkpt>
      <trkpt lat="46.54728" lon="4.79669">
        <ele>359.1896973</ele>
        <time>2013-07-07T07:45:50Z</time>
      </trkpt>
      <trkpt lat="46.54729" lon="4.79664">
        <ele>359.6704102</ele>
        <time>2013-07-07T07:46:06Z</time>
      </trkpt>
      <trkpt lat="46.54728" lon="4.79661">
        <ele>359.6704102</ele>
        <time>2013-07-07T07:46:42Z</time>
      </trkpt>
      <trkpt lat="46.54731" lon="4.7966">
        <ele>360.6317139</ele>
        <time>2013-07-07T07:47:02Z</time>
      </trkpt>
      <trkpt lat="46.5473" lon="4.79662">
        <ele>360.151123</ele>
        <time>2013-07-07T07:47:27Z</time>
      </trkpt>
      <trkpt lat="46.54727" lon="4.79668">
        <ele>359.6704102</ele>
        <time>2013-07-07T07:47:53Z</time>
      </trkpt>
      <trkpt lat="46.54725" lon="4.79677">
        <ele>359.6704102</ele>
        <time>2013-07-07T07:48:07Z</time>
      </trkpt>
      <trkpt lat="46.54725" lon="4.79676">
        <ele>360.6317139</ele>
        <time>2013-07-07T07:49:16Z</time>
      </trkpt>
      <trkpt lat="46.54725" lon="4.79677">
        <ele>360.6317139</ele>
        <time>2013-07-07T07:50:07Z</time>
      </trkpt>
      <trkpt lat="46.54722" lon="4.79686">
        <ele>360.151123</ele>
        <time>2013-07-07T07:50:13Z</time>
      </trkpt>
      <trkpt lat="46.54715" lon="4.79715">
        <ele>358.7089844</ele>
        <time>2013-07-07T07:50:22Z</time>
      </trkpt>
      <trkpt lat="46.54701" lon="4.79717">
        <ele>357.2670898</ele>
        <time>2013-07-07T07:50:28Z</time>
      </trkpt>
      <trkpt lat="46.54671" lon="4.79717">
        <ele>354.3831787</ele>
        <time>2013-07-07T07:50:39Z</time>
      </trkpt>
      <trkpt lat="46.54639" lon="4.79771">
        <ele>354.3831787</ele>
        <time>2013-07-07T07:50:55Z</time>
      </trkpt>
      <trkpt lat="46.54604" lon="4.79816">
        <ele>355.8251953</ele>
        <time>2013-07-07T07:51:09Z</time>
      </trkpt>
      <trkpt lat="46.54561" lon="4.7986">
        <ele>358.2283936</ele>
        <time>2013-07-07T07:51:25Z</time>
      </trkpt>
      <trkpt lat="46.54511" lon="4.7989">
        <ele>359.6704102</ele>
        <time>2013-07-07T07:51:40Z</time>
      </trkpt>
      <trkpt lat="46.54483" lon="4.79917">
        <ele>359.1896973</ele>
        <time>2013-07-07T07:51:49Z</time>
      </trkpt>
      <trkpt lat="46.54435" lon="4.79974">
        <ele>358.7089844</ele>
        <time>2013-07-07T07:52:05Z</time>
      </trkpt>
      <trkpt lat="46.54434" lon="4.79982">
        <ele>358.7089844</ele>
        <time>2013-07-07T07:52:09Z</time>
      </trkpt>
      <trkpt lat="46.54457" lon="4.79999">
        <ele>361.1124268</ele>
        <time>2013-07-07T07:52:25Z</time>
      </trkpt>
      <trkpt lat="46.54494" lon="4.80024">
        <ele>362.5543213</ele>
        <time>2013-07-07T07:52:45Z</time>
      </trkpt>
      <trkpt lat="46.54531" lon="4.80049">
        <ele>362.5543213</ele>
        <time>2013-07-07T07:53:01Z</time>
      </trkpt>
      <trkpt lat="46.54558" lon="4.80068">
        <ele>359.6704102</ele>
        <time>2013-07-07T07:53:12Z</time>
      </trkpt>
      <trkpt lat="46.54586" lon="4.80088">
        <ele>356.3057861</ele>
        <time>2013-07-07T07:53:22Z</time>
      </trkpt>
      <trkpt lat="46.54589" lon="4.80089">
        <ele>356.3057861</ele>
        <time>2013-07-07T07:53:23Z</time>
      </trkpt>
      <trkpt lat="46.54599" lon="4.80096">
        <ele>354.3831787</ele>
        <time>2013-07-07T07:53:27Z</time>
      </trkpt>
      <trkpt lat="46.54608" lon="4.80103">
        <ele>352.9411621</ele>
        <time>2013-07-07T07:53:30Z</time>
      </trkpt>
      <trkpt lat="46.54626" lon="4.80115">
        <ele>350.057251</ele>
        <time>2013-07-07T07:53:38Z</time>
      </trkpt>
      <trkpt lat="46.5464" lon="4.80125">
        <ele>347.1732178</ele>
        <time>2013-07-07T07:53:46Z</time>
      </trkpt>
      <trkpt lat="46.54654" lon="4.80135">
        <ele>344.2894287</ele>
        <time>2013-07-07T07:53:53Z</time>
      </trkpt>
      <trkpt lat="46.54663" lon="4.80136">
        <ele>342.3666992</ele>
        <time>2013-07-07T07:53:57Z</time>
      </trkpt>
      <trkpt lat="46.54684" lon="4.80141">
        <ele>338.5214844</ele>
        <time>2013-07-07T07:54:04Z</time>
      </trkpt>
      <trkpt lat="46.54689" lon="4.80138">
        <ele>335.1567383</ele>
        <time>2013-07-07T07:54:12Z</time>
      </trkpt>
      <trkpt lat="46.5469" lon="4.80137">
        <ele>335.1567383</ele>
        <time>2013-07-07T07:54:13Z</time>
      </trkpt>
      <trkpt lat="46.54694" lon="4.80134">
        <ele>334.6761475</ele>
        <time>2013-07-07T07:54:15Z</time>
      </trkpt>
      <trkpt lat="46.54699" lon="4.80128">
        <ele>332.2728271</ele>
        <time>2013-07-07T07:54:20Z</time>
      </trkpt>
      <trkpt lat="46.54703" lon="4.80122">
        <ele>332.2728271</ele>
        <time>2013-07-07T07:54:22Z</time>
      </trkpt>
      <trkpt lat="46.5471" lon="4.80109">
        <ele>328.9083252</ele>
        <time>2013-07-07T07:54:30Z</time>
      </trkpt>
      <trkpt lat="46.5471" lon="4.80107">
        <ele>328.9083252</ele>
        <time>2013-07-07T07:54:31Z</time>
      </trkpt>
      <trkpt lat="46.54711" lon="4.80087">
        <ele>325.5435791</ele>
        <time>2013-07-07T07:54:44Z</time>
      </trkpt>
      <trkpt lat="46.54713" lon="4.80067">
        <ele>323.6209717</ele>
        <time>2013-07-07T07:54:57Z</time>
      </trkpt>
      <trkpt lat="46.54716" lon="4.80049">
        <ele>321.2177734</ele>
        <time>2013-07-07T07:55:04Z</time>
      </trkpt>
      <trkpt lat="46.54718" lon="4.80046">
        <ele>319.2950439</ele>
        <time>2013-07-07T07:55:16Z</time>
      </trkpt>
      <trkpt lat="46.54736" lon="4.80023">
        <ele>317.3724365</ele>
        <time>2013-07-07T07:55:29Z</time>
      </trkpt>
      <trkpt lat="46.54752" lon="4.80009">
        <ele>314.0078125</ele>
        <time>2013-07-07T07:55:37Z</time>
      </trkpt>
      <trkpt lat="46.5476" lon="4.80003">
        <ele>313.0465088</ele>
        <time>2013-07-07T07:55:41Z</time>
      </trkpt>
      <trkpt lat="46.54785" lon="4.79982">
        <ele>310.1624756</ele>
        <time>2013-07-07T07:55:49Z</time>
      </trkpt>
      <trkpt lat="46.54795" lon="4.79975">
        <ele>309.6818848</ele>
        <time>2013-07-07T07:55:52Z</time>
      </trkpt>
      <trkpt lat="46.54825" lon="4.79953">
        <ele>306.3172607</ele>
        <time>2013-07-07T07:56:02Z</time>
      </trkpt>
      <trkpt lat="46.54845" lon="4.79936">
        <ele>302.4719238</ele>
        <time>2013-07-07T07:56:12Z</time>
      </trkpt>
      <trkpt lat="46.54852" lon="4.79925">
        <ele>301.0299072</ele>
        <time>2013-07-07T07:56:21Z</time>
      </trkpt>
      <trkpt lat="46.54872" lon="4.79897">
        <ele>298.1461182</ele>
        <time>2013-07-07T07:56:35Z</time>
      </trkpt>
      <trkpt lat="46.54872" lon="4.79897">
        <ele>297.6654053</ele>
        <time>2013-07-07T07:56:40Z</time>
      </trkpt>
      <trkpt lat="46.54889" lon="4.79874">
        <ele>295.2619629</ele>
        <time>2013-07-07T07:56:49Z</time>
      </trkpt>
      <trkpt lat="46.54898" lon="4.79861">
        <ele>293.8200684</ele>
        <time>2013-07-07T07:56:55Z</time>
      </trkpt>
      <trkpt lat="46.5492" lon="4.79844">
        <ele>290.4555664</ele>
        <time>2013-07-07T07:57:03Z</time>
      </trkpt>
      <trkpt lat="46.54925" lon="4.79841">
        <ele>289.9748535</ele>
        <time>2013-07-07T07:57:05Z</time>
      </trkpt>
      <trkpt lat="46.54952" lon="4.79827">
        <ele>287.0908203</ele>
        <time>2013-07-07T07:57:14Z</time>
      </trkpt>
      <trkpt lat="46.54963" lon="4.79821">
        <ele>285.6488037</ele>
        <time>2013-07-07T07:57:18Z</time>
      </trkpt>
      <trkpt lat="46.54994" lon="4.798">
        <ele>283.2456055</ele>
        <time>2013-07-07T07:57:30Z</time>
      </trkpt>
      <trkpt lat="46.54997" lon="4.79787">
        <ele>281.8035889</ele>
        <time>2013-07-07T07:57:40Z</time>
      </trkpt>
      <trkpt lat="46.55004" lon="4.79764">
        <ele>280.3616943</ele>
        <time>2013-07-07T07:57:50Z</time>
      </trkpt>
      <trkpt lat="46.55016" lon="4.79727">
        <ele>276.9970703</ele>
        <time>2013-07-07T07:57:55Z</time>
      </trkpt>
      <trkpt lat="46.55023" lon="4.79709">
        <ele>275.5550537</ele>
        <time>2013-07-07T07:57:57Z</time>
      </trkpt>
      <trkpt lat="46.5503" lon="4.79689">
        <ele>273.6324463</ele>
        <time>2013-07-07T07:57:59Z</time>
      </trkpt>
      <trkpt lat="46.55034" lon="4.79679">
        <ele>272.6711426</ele>
        <time>2013-07-07T07:58:00Z</time>
      </trkpt>
      <trkpt lat="46.55045" lon="4.79645">
        <ele>271.229126</ele>
        <time>2013-07-07T07:58:03Z</time>
      </trkpt>
      <trkpt lat="46.55059" lon="4.79613">
        <ele>268.8258057</ele>
        <time>2013-07-07T07:58:06Z</time>
      </trkpt>
      <trkpt lat="46.55062" lon="4.79604">
        <ele>268.3450928</ele>
        <time>2013-07-07T07:58:07Z</time>
      </trkpt>
      <trkpt lat="46.55071" lon="4.79569">
        <ele>270.2677002</ele>
        <time>2013-07-07T07:58:15Z</time>
      </trkpt>
      <trkpt lat="46.55071" lon="4.79569">
        <ele>271.229126</ele>
        <time>2013-07-07T07:58:27Z</time>
      </trkpt>
      <trkpt lat="46.55073" lon="4.79561">
        <ele>270.2677002</ele>
        <time>2013-07-07T07:58:31Z</time>
      </trkpt>
      <trkpt lat="46.55082" lon="4.79511">
        <ele>266.9031982</ele>
        <time>2013-07-07T07:58:42Z</time>
      </trkpt>
      <trkpt lat="46.55089" lon="4.79465">
        <ele>266.4224854</ele>
        <time>2013-07-07T07:58:48Z</time>
      </trkpt>
      <trkpt lat="46.55085" lon="4.79409">
        <ele>264.0192871</ele>
        <time>2013-07-07T07:58:54Z</time>
      </trkpt>
      <trkpt lat="46.551" lon="4.79352">
        <ele>265.4613037</ele>
        <time>2013-07-07T07:59:02Z</time>
      </trkpt>
      <trkpt lat="46.5513" lon="4.79315">
        <ele>264.9805908</ele>
        <time>2013-07-07T07:59:12Z</time>
      </trkpt>
      <trkpt lat="46.55135" lon="4.79282">
        <ele>266.4224854</ele>
        <time>2013-07-07T07:59:18Z</time>
      </trkpt>
      <trkpt lat="46.55135" lon="4.79278">
        <ele>267.3839111</ele>
        <time>2013-07-07T07:59:19Z</time>
      </trkpt>
      <trkpt lat="46.5514" lon="4.79239">
        <ele>270.7484131</ele>
        <time>2013-07-07T07:59:33Z</time>
      </trkpt>
      <trkpt lat="46.55133" lon="4.79202">
        <ele>272.1904297</ele>
        <time>2013-07-07T07:59:46Z</time>
      </trkpt>
      <trkpt lat="46.55116" lon="4.79183">
        <ele>274.1130371</ele>
        <time>2013-07-07T08:00:06Z</time>
      </trkpt>
      <trkpt lat="46.55116" lon="4.79183">
        <ele>274.59375</ele>
        <time>2013-07-07T08:01:26Z</time>
      </trkpt>
      <trkpt lat="46.55105" lon="4.79156">
        <ele>271.229126</ele>
        <time>2013-07-07T08:02:33Z</time>
      </trkpt>
      <trkpt lat="46.55101" lon="4.79138">
        <ele>269.7871094</ele>
        <time>2013-07-07T08:02:37Z</time>
      </trkpt>
      <trkpt lat="46.551" lon="4.79121">
        <ele>267.864502</ele>
        <time>2013-07-07T08:02:41Z</time>
      </trkpt>
      <trkpt lat="46.55096" lon="4.79078">
        <ele>264.9805908</ele>
        <time>2013-07-07T08:02:49Z</time>
      </trkpt>
      <trkpt lat="46.5511" lon="4.79033">
        <ele>264.9805908</ele>
        <time>2013-07-07T08:02:57Z</time>
      </trkpt>
      <trkpt lat="46.55144" lon="4.78988">
        <ele>268.3450928</ele>
        <time>2013-07-07T08:03:11Z</time>
      </trkpt>
      <trkpt lat="46.55149" lon="4.7894">
        <ele>270.7484131</ele>
        <time>2013-07-07T08:03:24Z</time>
      </trkpt>
      <trkpt lat="46.5515" lon="4.78952">
        <ele>271.229126</ele>
        <time>2013-07-07T08:03:28Z</time>
      </trkpt>
      <trkpt lat="46.55139" lon="4.78923">
        <ele>272.1904297</ele>
        <time>2013-07-07T08:03:32Z</time>
      </trkpt>
      <trkpt lat="46.55077" lon="4.78866">
        <ele>271.229126</ele>
        <time>2013-07-07T08:03:51Z</time>
      </trkpt>
      <trkpt lat="46.55024" lon="4.78781">
        <ele>268.8258057</ele>
        <time>2013-07-07T08:04:08Z</time>
      </trkpt>
      <trkpt lat="46.5498" lon="4.78738">
        <ele>271.229126</ele>
        <time>2013-07-07T08:04:22Z</time>
      </trkpt>
      <trkpt lat="46.54954" lon="4.78708">
        <ele>272.6711426</ele>
        <time>2013-07-07T08:04:35Z</time>
      </trkpt>
      <trkpt lat="46.54955" lon="4.78695">
        <ele>271.7097168</ele>
        <time>2013-07-07T08:04:37Z</time>
      </trkpt>
      <trkpt lat="46.54958" lon="4.78679">
        <ele>268.3450928</ele>
        <time>2013-07-07T08:04:39Z</time>
      </trkpt>
      <trkpt lat="46.54959" lon="4.7867">
        <ele>268.3450928</ele>
        <time>2013-07-07T08:04:40Z</time>
      </trkpt>
      <trkpt lat="46.54959" lon="4.7865">
        <ele>266.9031982</ele>
        <time>2013-07-07T08:04:42Z</time>
      </trkpt>
      <trkpt lat="46.54959" lon="4.78639">
        <ele>266.4224854</ele>
        <time>2013-07-07T08:04:43Z</time>
      </trkpt>
      <trkpt lat="46.54949" lon="4.78582">
        <ele>262.0965576</ele>
        <time>2013-07-07T08:04:48Z</time>
      </trkpt>
      <trkpt lat="46.54947" lon="4.78573">
        <ele>262.0965576</ele>
        <time>2013-07-07T08:04:49Z</time>
      </trkpt>
      <trkpt lat="46.54944" lon="4.78558">
        <ele>262.5771484</ele>
        <time>2013-07-07T08:04:51Z</time>
      </trkpt>
      <trkpt lat="46.54949" lon="4.78523">
        <ele>257.2900391</ele>
        <time>2013-07-07T08:04:55Z</time>
      </trkpt>
      <trkpt lat="46.54956" lon="4.78501">
        <ele>255.3673096</ele>
        <time>2013-07-07T08:04:57Z</time>
      </trkpt>
      <trkpt lat="46.54964" lon="4.78463">
        <ele>253.925415</ele>
        <time>2013-07-07T08:05:00Z</time>
      </trkpt>
      <trkpt lat="46.54967" lon="4.78438">
        <ele>250.560791</ele>
        <time>2013-07-07T08:05:02Z</time>
      </trkpt>
      <trkpt lat="46.54969" lon="4.78425">
        <ele>250.560791</ele>
        <time>2013-07-07T08:05:03Z</time>
      </trkpt>
      <trkpt lat="46.54971" lon="4.78399">
        <ele>248.1575928</ele>
        <time>2013-07-07T08:05:05Z</time>
      </trkpt>
      <trkpt lat="46.54978" lon="4.78374">
        <ele>245.7541504</ele>
        <time>2013-07-07T08:05:07Z</time>
      </trkpt>
      <trkpt lat="46.54986" lon="4.78346">
        <ele>240.9476318</ele>
        <time>2013-07-07T08:05:09Z</time>
      </trkpt>
      <trkpt lat="46.5499" lon="4.78332">
        <ele>240.9476318</ele>
        <time>2013-07-07T08:05:10Z</time>
      </trkpt>
      <trkpt lat="46.55008" lon="4.78264">
        <ele>237.5828857</ele>
        <time>2013-07-07T08:05:15Z</time>
      </trkpt>
      <trkpt lat="46.55012" lon="4.7825">
        <ele>236.6217041</ele>
        <time>2013-07-07T08:05:16Z</time>
      </trkpt>
      <trkpt lat="46.55012" lon="4.78196">
        <ele>233.7376709</ele>
        <time>2013-07-07T08:05:20Z</time>
      </trkpt>
      <trkpt lat="46.55006" lon="4.78143">
        <ele>232.2957764</ele>
        <time>2013-07-07T08:05:24Z</time>
      </trkpt>
      <trkpt lat="46.55002" lon="4.78082">
        <ele>231.3343506</ele>
        <time>2013-07-07T08:05:29Z</time>
      </trkpt>
      <trkpt lat="46.55005" lon="4.78034">
        <ele>233.2570801</ele>
        <time>2013-07-07T08:05:34Z</time>
      </trkpt>
      <trkpt lat="46.55022" lon="4.77992">
        <ele>233.7376709</ele>
        <time>2013-07-07T08:05:40Z</time>
      </trkpt>
      <trkpt lat="46.5505" lon="4.77872">
        <ele>235.1796875</ele>
        <time>2013-07-07T08:05:58Z</time>
      </trkpt>
      <trkpt lat="46.55074" lon="4.77784">
        <ele>232.7764893</ele>
        <time>2013-07-07T08:06:10Z</time>
      </trkpt>
      <trkpt lat="46.55089" lon="4.77733">
        <ele>228.9311523</ele>
        <time>2013-07-07T08:06:16Z</time>
      </trkpt>
      <trkpt lat="46.55092" lon="4.77723">
        <ele>228.9311523</ele>
        <time>2013-07-07T08:06:17Z</time>
      </trkpt>
      <trkpt lat="46.55098" lon="4.77704">
        <ele>227.4891357</ele>
        <time>2013-07-07T08:06:19Z</time>
      </trkpt>
      <trkpt lat="46.5511" lon="4.77666">
        <ele>224.1245117</ele>
        <time>2013-07-07T08:06:23Z</time>
      </trkpt>
      <trkpt lat="46.55113" lon="4.77656">
        <ele>224.1245117</ele>
        <time>2013-07-07T08:06:24Z</time>
      </trkpt>
      <trkpt lat="46.5512" lon="4.77634">
        <ele>222.6824951</ele>
        <time>2013-07-07T08:06:26Z</time>
      </trkpt>
      <trkpt lat="46.55146" lon="4.77547">
        <ele>219.3179932</ele>
        <time>2013-07-07T08:06:34Z</time>
      </trkpt>
      <trkpt lat="46.55159" lon="4.77508">
        <ele>217.3953857</ele>
        <time>2013-07-07T08:06:38Z</time>
      </trkpt>
      <trkpt lat="46.55176" lon="4.77451">
        <ele>215.4726563</ele>
        <time>2013-07-07T08:06:44Z</time>
      </trkpt>
      <trkpt lat="46.55193" lon="4.77391">
        <ele>213.5500488</ele>
        <time>2013-07-07T08:06:51Z</time>
      </trkpt>
      <trkpt lat="46.55218" lon="4.77309">
        <ele>214.0306396</ele>
        <time>2013-07-07T08:07:04Z</time>
      </trkpt>
      <trkpt lat="46.55225" lon="4.77284">
        <ele>214.0306396</ele>
        <time>2013-07-07T08:07:09Z</time>
      </trkpt>
      <trkpt lat="46.5523" lon="4.77265">
        <ele>213.5500488</ele>
        <time>2013-07-07T08:07:12Z</time>
      </trkpt>
      <trkpt lat="46.55275" lon="4.77118">
        <ele>213.5500488</ele>
        <time>2013-07-07T08:07:33Z</time>
      </trkpt>
      <trkpt lat="46.55281" lon="4.77093">
        <ele>214.0306396</ele>
        <time>2013-07-07T08:07:37Z</time>
      </trkpt>
      <trkpt lat="46.55281" lon="4.7706">
        <ele>214.5112305</ele>
        <time>2013-07-07T08:07:42Z</time>
      </trkpt>
      <trkpt lat="46.55289" lon="4.77036">
        <ele>214.5112305</ele>
        <time>2013-07-07T08:07:49Z</time>
      </trkpt>
      <trkpt lat="46.55297" lon="4.77034">
        <ele>214.9919434</ele>
        <time>2013-07-07T08:07:54Z</time>
      </trkpt>
      <trkpt lat="46.553" lon="4.77018">
        <ele>216.43396</ele>
        <time>2013-07-07T08:08:00Z</time>
      </trkpt>
      <trkpt lat="46.553" lon="4.77018">
        <ele>217.3953857</ele>
        <time>2013-07-07T08:08:08Z</time>
      </trkpt>
      <trkpt lat="46.55309" lon="4.76975">
        <ele>218.8372803</ele>
        <time>2013-07-07T08:08:21Z</time>
      </trkpt>
      <trkpt lat="46.5531" lon="4.76968">
        <ele>218.8372803</ele>
        <time>2013-07-07T08:08:23Z</time>
      </trkpt>
      <trkpt lat="46.55319" lon="4.7693">
        <ele>218.3565674</ele>
        <time>2013-07-07T08:08:37Z</time>
      </trkpt>
      <trkpt lat="46.55324" lon="4.76903">
        <ele>217.3953857</ele>
        <time>2013-07-07T08:08:51Z</time>
      </trkpt>
      <trkpt lat="46.55324" lon="4.76903">
        <ele>216.9146729</ele>
        <time>2013-07-07T08:09:06Z</time>
      </trkpt>
      <trkpt lat="46.55324" lon="4.76903">
        <ele>217.3953857</ele>
        <time>2013-07-07T08:09:09Z</time>
      </trkpt>
      <trkpt lat="46.55324" lon="4.76903">
        <ele>217.3953857</ele>
        <time>2013-07-07T08:09:15Z</time>
      </trkpt>
      <trkpt lat="46.55333" lon="4.76866">
        <ele>217.3953857</ele>
        <time>2013-07-07T08:09:26Z</time>
      </trkpt>
      <trkpt lat="46.55335" lon="4.76856">
        <ele>216.9146729</ele>
        <time>2013-07-07T08:09:31Z</time>
      </trkpt>
      <trkpt lat="46.55338" lon="4.76845">
        <ele>216.9146729</ele>
        <time>2013-07-07T08:09:35Z</time>
      </trkpt>
      <trkpt lat="46.55341" lon="4.76832">
        <ele>216.9146729</ele>
        <time>2013-07-07T08:09:39Z</time>
      </trkpt>
      <trkpt lat="46.55347" lon="4.76807">
        <ele>217.3953857</ele>
        <time>2013-07-07T08:09:51Z</time>
      </trkpt>
      <trkpt lat="46.55348" lon="4.76804">
        <ele>216.9146729</ele>
        <time>2013-07-07T08:09:53Z</time>
      </trkpt>
      <trkpt lat="46.55353" lon="4.76783">
        <ele>217.3953857</ele>
        <time>2013-07-07T08:10:02Z</time>
      </trkpt>
      <trkpt lat="46.55355" lon="4.76775">
        <ele>216.9146729</ele>
        <time>2013-07-07T08:10:05Z</time>
      </trkpt>
      <trkpt lat="46.55358" lon="4.76764">
        <ele>217.3953857</ele>
        <time>2013-07-07T08:10:09Z</time>
      </trkpt>
      <trkpt lat="46.55362" lon="4.76747">
        <ele>217.8759766</ele>
        <time>2013-07-07T08:10:18Z</time>
      </trkpt>
      <trkpt lat="46.55366" lon="4.76727">
        <ele>217.8759766</ele>
        <time>2013-07-07T08:10:26Z</time>
      </trkpt>
      <trkpt lat="46.55369" lon="4.76712">
        <ele>218.3565674</ele>
        <time>2013-07-07T08:10:31Z</time>
      </trkpt>
      <trkpt lat="46.55371" lon="4.76705">
        <ele>217.8759766</ele>
        <time>2013-07-07T08:10:33Z</time>
      </trkpt>
      <trkpt lat="46.55382" lon="4.76653">
        <ele>218.3565674</ele>
        <time>2013-07-07T08:10:52Z</time>
      </trkpt>
      <trkpt lat="46.55387" lon="4.76632">
        <ele>218.8372803</ele>
        <time>2013-07-07T08:11:00Z</time>
      </trkpt>
      <trkpt lat="46.55396" lon="4.76596">
        <ele>219.798584</ele>
        <time>2013-07-07T08:11:12Z</time>
      </trkpt>
      <trkpt lat="46.55402" lon="4.7657">
        <ele>220.2791748</ele>
        <time>2013-07-07T08:11:21Z</time>
      </trkpt>
      <trkpt lat="46.55404" lon="4.76561">
        <ele>220.2791748</ele>
        <time>2013-07-07T08:11:26Z</time>
      </trkpt>
      <trkpt lat="46.55408" lon="4.76541">
        <ele>220.7598877</ele>
        <time>2013-07-07T08:11:34Z</time>
      </trkpt>
      <trkpt lat="46.55415" lon="4.76514">
        <ele>220.7598877</ele>
        <time>2013-07-07T08:11:45Z</time>
      </trkpt>
      <trkpt lat="46.55423" lon="4.76478">
        <ele>221.7211914</ele>
        <time>2013-07-07T08:11:58Z</time>
      </trkpt>
      <trkpt lat="46.55429" lon="4.76455">
        <ele>222.2017822</ele>
        <time>2013-07-07T08:12:06Z</time>
      </trkpt>
      <trkpt lat="46.5543" lon="4.76449">
        <ele>221.7211914</ele>
        <time>2013-07-07T08:12:08Z</time>
      </trkpt>
      <trkpt lat="46.5544" lon="4.7641">
        <ele>223.163208</ele>
        <time>2013-07-07T08:12:22Z</time>
      </trkpt>
      <trkpt lat="46.55447" lon="4.76379">
        <ele>223.6437988</ele>
        <time>2013-07-07T08:12:34Z</time>
      </trkpt>
      <trkpt lat="46.5545" lon="4.76367">
        <ele>223.6437988</ele>
        <time>2013-07-07T08:12:38Z</time>
      </trkpt>
      <trkpt lat="46.55456" lon="4.76339">
        <ele>225.0859375</ele>
        <time>2013-07-07T08:12:51Z</time>
      </trkpt>
      <trkpt lat="46.55458" lon="4.76332">
        <ele>224.6052246</ele>
        <time>2013-07-07T08:12:53Z</time>
      </trkpt>
      <trkpt lat="46.55467" lon="4.76287">
        <ele>226.527832</ele>
        <time>2013-07-07T08:13:10Z</time>
      </trkpt>
      <trkpt lat="46.55467" lon="4.76287">
        <ele>226.527832</ele>
        <time>2013-07-07T08:13:11Z</time>
      </trkpt>
      <trkpt lat="46.55475" lon="4.76248">
        <ele>227.4891357</ele>
        <time>2013-07-07T08:13:21Z</time>
      </trkpt>
      <trkpt lat="46.55476" lon="4.76243">
        <ele>227.4891357</ele>
        <time>2013-07-07T08:13:23Z</time>
      </trkpt>
      <trkpt lat="46.55479" lon="4.76226">
        <ele>227.9697266</ele>
        <time>2013-07-07T08:13:29Z</time>
      </trkpt>
      <trkpt lat="46.55481" lon="4.76219">
        <ele>228.9311523</ele>
        <time>2013-07-07T08:13:32Z</time>
      </trkpt>
      <trkpt lat="46.55503" lon="4.76222">
        <ele>228.4504395</ele>
        <time>2013-07-07T08:13:45Z</time>
      </trkpt>
      <trkpt lat="46.55503" lon="4.76222">
        <ele>228.4504395</ele>
        <time>2013-07-07T08:15:02Z</time>
      </trkpt>
      <trkpt lat="46.55525" lon="4.76232">
        <ele>227.4891357</ele>
        <time>2013-07-07T08:16:08Z</time>
      </trkpt>
      <trkpt lat="46.55574" lon="4.76255">
        <ele>226.527832</ele>
        <time>2013-07-07T08:16:22Z</time>
      </trkpt>
      <trkpt lat="46.5563" lon="4.76282">
        <ele>226.0471191</ele>
        <time>2013-07-07T08:16:37Z</time>
      </trkpt>
      <trkpt lat="46.55666" lon="4.763">
        <ele>226.527832</ele>
        <time>2013-07-07T08:16:48Z</time>
      </trkpt>
      <trkpt lat="46.55708" lon="4.76321">
        <ele>226.0471191</ele>
        <time>2013-07-07T08:16:58Z</time>
      </trkpt>
      <trkpt lat="46.55776" lon="4.76354">
        <ele>227.4891357</ele>
        <time>2013-07-07T08:17:16Z</time>
      </trkpt>
      <trkpt lat="46.55875" lon="4.76401">
        <ele>227.4891357</ele>
        <time>2013-07-07T08:17:40Z</time>
      </trkpt>
      <trkpt lat="46.55948" lon="4.76436">
        <ele>228.4504395</ele>
        <time>2013-07-07T08:17:58Z</time>
      </trkpt>
      <trkpt lat="46.56013" lon="4.76467">
        <ele>229.892334</ele>
        <time>2013-07-07T08:18:15Z</time>
      </trkpt>
      <trkpt lat="46.56084" lon="4.76501">
        <ele>230.8537598</ele>
        <time>2013-07-07T08:18:34Z</time>
      </trkpt>
      <trkpt lat="46.56146" lon="4.7653">
        <ele>230.8537598</ele>
        <time>2013-07-07T08:18:50Z</time>
      </trkpt>
      <trkpt lat="46.56178" lon="4.76548">
        <ele>230.3730469</ele>
        <time>2013-07-07T08:18:59Z</time>
      </trkpt>
      <trkpt lat="46.56258" lon="4.76586">
        <ele>229.4117432</ele>
        <time>2013-07-07T08:19:18Z</time>
      </trkpt>
      <trkpt lat="46.56325" lon="4.76618">
        <ele>227.4891357</ele>
        <time>2013-07-07T08:19:35Z</time>
      </trkpt>
      <trkpt lat="46.56325" lon="4.76618">
        <ele>228.4504395</ele>
        <time>2013-07-07T08:19:47Z</time>
      </trkpt>
      <trkpt lat="46.56355" lon="4.76632">
        <ele>227.0085449</ele>
        <time>2013-07-07T08:19:58Z</time>
      </trkpt>
      <trkpt lat="46.56423" lon="4.76664">
        <ele>225.5665283</ele>
        <time>2013-07-07T08:20:14Z</time>
      </trkpt>
      <trkpt lat="46.56447" lon="4.76676">
        <ele>224.6052246</ele>
        <time>2013-07-07T08:20:20Z</time>
      </trkpt>
      <trkpt lat="46.5649" lon="4.76696">
        <ele>224.6052246</ele>
        <time>2013-07-07T08:20:31Z</time>
      </trkpt>
      <trkpt lat="46.56496" lon="4.76757">
        <ele>222.6824951</ele>
        <time>2013-07-07T08:20:40Z</time>
      </trkpt>
      <trkpt lat="46.56495" lon="4.76775">
        <ele>221.2406006</ele>
        <time>2013-07-07T08:20:42Z</time>
      </trkpt>
      <trkpt lat="46.56492" lon="4.7686">
        <ele>216.9146729</ele>
        <time>2013-07-07T08:20:50Z</time>
      </trkpt>
      <trkpt lat="46.56491" lon="4.76872">
        <ele>216.9146729</ele>
        <time>2013-07-07T08:20:51Z</time>
      </trkpt>
      <trkpt lat="46.5649" lon="4.76907">
        <ele>214.9919434</ele>
        <time>2013-07-07T08:20:54Z</time>
      </trkpt>
      <trkpt lat="46.56487" lon="4.76971">
        <ele>212.1080322</ele>
        <time>2013-07-07T08:20:59Z</time>
      </trkpt>
      <trkpt lat="46.56486" lon="4.76999">
        <ele>210.1854248</ele>
        <time>2013-07-07T08:21:01Z</time>
      </trkpt>
      <trkpt lat="46.56485" lon="4.77028">
        <ele>209.2241211</ele>
        <time>2013-07-07T08:21:03Z</time>
      </trkpt>
      <trkpt lat="46.56482" lon="4.77121">
        <ele>206.8206787</ele>
        <time>2013-07-07T08:21:10Z</time>
      </trkpt>
      <trkpt lat="46.56482" lon="4.77152">
        <ele>210.1854248</ele>
        <time>2013-07-07T08:21:15Z</time>
      </trkpt>
      <trkpt lat="46.56481" lon="4.77167">
        <ele>208.7434082</ele>
        <time>2013-07-07T08:21:19Z</time>
      </trkpt>
      <trkpt lat="46.56481" lon="4.7716">
        <ele>210.1854248</ele>
        <time>2013-07-07T08:21:24Z</time>
      </trkpt>
      <trkpt lat="46.56482" lon="4.77099">
        <ele>211.6274414</ele>
        <time>2013-07-07T08:21:40Z</time>
      </trkpt>
      <trkpt lat="46.56482" lon="4.77096">
        <ele>211.6274414</ele>
        <time>2013-07-07T08:21:41Z</time>
      </trkpt>
      <trkpt lat="46.5652" lon="4.77097">
        <ele>210.1854248</ele>
        <time>2013-07-07T08:21:52Z</time>
      </trkpt>
      <trkpt lat="46.56555" lon="4.7711">
        <ele>208.7434082</ele>
        <time>2013-07-07T08:22:01Z</time>
      </trkpt>
      <trkpt lat="46.56603" lon="4.77135">
        <ele>208.2628174</ele>
        <time>2013-07-07T08:22:12Z</time>
      </trkpt>
      <trkpt lat="46.56646" lon="4.77148">
        <ele>208.2628174</ele>
        <time>2013-07-07T08:22:23Z</time>
      </trkpt>
      <trkpt lat="46.56653" lon="4.77151">
        <ele>208.7434082</ele>
        <time>2013-07-07T08:22:25Z</time>
      </trkpt>
      <trkpt lat="46.56699" lon="4.77165">
        <ele>209.2241211</ele>
        <time>2013-07-07T08:22:34Z</time>
      </trkpt>
      <trkpt lat="46.5672" lon="4.77171">
        <ele>208.7434082</ele>
        <time>2013-07-07T08:22:39Z</time>
      </trkpt>
      <trkpt lat="46.56782" lon="4.77192">
        <ele>207.7821045</ele>
        <time>2013-07-07T08:22:50Z</time>
      </trkpt>
      <trkpt lat="46.56814" lon="4.77204">
        <ele>205.8594971</ele>
        <time>2013-07-07T08:22:58Z</time>
      </trkpt>
      <trkpt lat="46.56837" lon="4.77208">
        <ele>206.3400879</ele>
        <time>2013-07-07T08:23:01Z</time>
      </trkpt>
      <trkpt lat="46.56857" lon="4.77208">
        <ele>207.3013916</ele>
        <time>2013-07-07T08:23:06Z</time>
      </trkpt>
      <trkpt lat="46.56876" lon="4.77204">
        <ele>207.7821045</ele>
        <time>2013-07-07T08:23:13Z</time>
      </trkpt>
      <trkpt lat="46.56904" lon="4.77192">
        <ele>208.2628174</ele>
        <time>2013-07-07T08:23:23Z</time>
      </trkpt>
      <trkpt lat="46.56933" lon="4.7718">
        <ele>208.7434082</ele>
        <time>2013-07-07T08:23:35Z</time>
      </trkpt>
      <trkpt lat="46.5697" lon="4.77164">
        <ele>209.704834</ele>
        <time>2013-07-07T08:23:48Z</time>
      </trkpt>
      <trkpt lat="46.57003" lon="4.7715">
        <ele>209.2241211</ele>
        <time>2013-07-07T08:23:55Z</time>
      </trkpt>
      <trkpt lat="46.57019" lon="4.77144">
        <ele>209.2241211</ele>
        <time>2013-07-07T08:24:00Z</time>
      </trkpt>
      <trkpt lat="46.57034" lon="4.77138">
        <ele>209.2241211</ele>
        <time>2013-07-07T08:24:04Z</time>
      </trkpt>
      <trkpt lat="46.5708" lon="4.7712">
        <ele>208.2628174</ele>
        <time>2013-07-07T08:24:11Z</time>
      </trkpt>
      <trkpt lat="46.5712" lon="4.77105">
        <ele>206.8206787</ele>
        <time>2013-07-07T08:24:18Z</time>
      </trkpt>
      <trkpt lat="46.57168" lon="4.77086">
        <ele>203.4561768</ele>
        <time>2013-07-07T08:24:26Z</time>
      </trkpt>
      <trkpt lat="46.57197" lon="4.77074">
        <ele>203.9368896</ele>
        <time>2013-07-07T08:24:34Z</time>
      </trkpt>
      <trkpt lat="46.57244" lon="4.77054">
        <ele>204.4174805</ele>
        <time>2013-07-07T08:24:45Z</time>
      </trkpt>
      <trkpt lat="46.5726" lon="4.77047">
        <ele>205.8594971</ele>
        <time>2013-07-07T08:24:50Z</time>
      </trkpt>
      <trkpt lat="46.57313" lon="4.77023">
        <ele>206.8206787</ele>
        <time>2013-07-07T08:25:03Z</time>
      </trkpt>
      <trkpt lat="46.57355" lon="4.77008">
        <ele>209.2241211</ele>
        <time>2013-07-07T08:25:15Z</time>
      </trkpt>
      <trkpt lat="46.57367" lon="4.77005">
        <ele>210.1854248</ele>
        <time>2013-07-07T08:25:18Z</time>
      </trkpt>
      <trkpt lat="46.57383" lon="4.76998">
        <ele>211.1467285</ele>
        <time>2013-07-07T08:25:30Z</time>
      </trkpt>
      <trkpt lat="46.57422" lon="4.76982">
        <ele>212.588623</ele>
        <time>2013-07-07T08:25:44Z</time>
      </trkpt>
      <trkpt lat="46.57464" lon="4.76965">
        <ele>212.1080322</ele>
        <time>2013-07-07T08:25:56Z</time>
      </trkpt>
      <trkpt lat="46.57501" lon="4.7695">
        <ele>212.588623</ele>
        <time>2013-07-07T08:26:07Z</time>
      </trkpt>
      <trkpt lat="46.57541" lon="4.76934">
        <ele>212.588623</ele>
        <time>2013-07-07T08:26:20Z</time>
      </trkpt>
      <trkpt lat="46.57597" lon="4.76912">
        <ele>212.1080322</ele>
        <time>2013-07-07T08:26:36Z</time>
      </trkpt>
      <trkpt lat="46.57621" lon="4.76902">
        <ele>212.1080322</ele>
        <time>2013-07-07T08:26:47Z</time>
      </trkpt>
      <trkpt lat="46.57642" lon="4.76893">
        <ele>211.1467285</ele>
        <time>2013-07-07T08:26:56Z</time>
      </trkpt>
      <trkpt lat="46.57642" lon="4.76893">
        <ele>211.6274414</ele>
        <time>2013-07-07T08:27:13Z</time>
      </trkpt>
      <trkpt lat="46.57666" lon="4.76883">
        <ele>210.1854248</ele>
        <time>2013-07-07T08:33:51Z</time>
      </trkpt>
      <trkpt lat="46.57678" lon="4.76878">
        <ele>209.2241211</ele>
        <time>2013-07-07T08:33:55Z</time>
      </trkpt>
      <trkpt lat="46.57685" lon="4.76875">
        <ele>206.8206787</ele>
        <time>2013-07-07T08:34:01Z</time>
      </trkpt>
      <trkpt lat="46.57718" lon="4.76861">
        <ele>205.8594971</ele>
        <time>2013-07-07T08:34:08Z</time>
      </trkpt>
      <trkpt lat="46.57761" lon="4.76841">
        <ele>204.8980713</ele>
        <time>2013-07-07T08:34:20Z</time>
      </trkpt>
      <trkpt lat="46.57761" lon="4.76841">
        <ele>204.8980713</ele>
        <time>2013-07-07T08:34:22Z</time>
      </trkpt>
      <trkpt lat="46.57819" lon="4.76884">
        <ele>200.5722656</ele>
        <time>2013-07-07T08:34:29Z</time>
      </trkpt>
      <trkpt lat="46.57823" lon="4.76886">
        <ele>200.5722656</ele>
        <time>2013-07-07T08:34:30Z</time>
      </trkpt>
      <trkpt lat="46.57842" lon="4.76886">
        <ele>202.494873</ele>
        <time>2013-07-07T08:34:35Z</time>
      </trkpt>
      <trkpt lat="46.57896" lon="4.76869">
        <ele>202.0142822</ele>
        <time>2013-07-07T08:34:52Z</time>
      </trkpt>
      <trkpt lat="46.57946" lon="4.76849">
        <ele>202.494873</ele>
        <time>2013-07-07T08:35:06Z</time>
      </trkpt>
      <trkpt lat="46.57962" lon="4.76823">
        <ele>203.9368896</ele>
        <time>2013-07-07T08:35:14Z</time>
      </trkpt>
      <trkpt lat="46.57956" lon="4.76779">
        <ele>204.8980713</ele>
        <time>2013-07-07T08:35:25Z</time>
      </trkpt>
      <trkpt lat="46.57953" lon="4.76756">
        <ele>205.3787842</ele>
        <time>2013-07-07T08:35:29Z</time>
      </trkpt>
      <trkpt lat="46.57969" lon="4.76742">
        <ele>206.8206787</ele>
        <time>2013-07-07T08:35:40Z</time>
      </trkpt>
      <trkpt lat="46.57972" lon="4.76746">
        <ele>206.8206787</ele>
        <time>2013-07-07T08:35:43Z</time>
      </trkpt>
      <trkpt lat="46.57979" lon="4.7675">
        <ele>209.2241211</ele>
        <time>2013-07-07T08:35:56Z</time>
      </trkpt>
      <trkpt lat="46.57989" lon="4.76766">
        <ele>210.1854248</ele>
        <time>2013-07-07T08:36:12Z</time>
      </trkpt>
      <trkpt lat="46.57996" lon="4.76776">
        <ele>211.1467285</ele>
        <time>2013-07-07T08:36:23Z</time>
      </trkpt>
      <trkpt lat="46.58007" lon="4.76796">
        <ele>211.6274414</ele>
        <time>2013-07-07T08:36:39Z</time>
      </trkpt>
      <trkpt lat="46.5801" lon="4.76803">
        <ele>211.1467285</ele>
        <time>2013-07-07T08:36:47Z</time>
      </trkpt>
      <trkpt lat="46.58018" lon="4.76824">
        <ele>211.6274414</ele>
        <time>2013-07-07T08:36:57Z</time>
      </trkpt>
      <trkpt lat="46.58021" lon="4.76833">
        <ele>211.6274414</ele>
        <time>2013-07-07T08:37:01Z</time>
      </trkpt>
      <trkpt lat="46.58021" lon="4.76837">
        <ele>211.6274414</ele>
        <time>2013-07-07T08:37:03Z</time>
      </trkpt>
      <trkpt lat="46.58041" lon="4.7686">
        <ele>211.6274414</ele>
        <time>2013-07-07T08:37:14Z</time>
      </trkpt>
      <trkpt lat="46.58051" lon="4.76866">
        <ele>211.6274414</ele>
        <time>2013-07-07T08:37:18Z</time>
      </trkpt>
      <trkpt lat="46.58089" lon="4.76869">
        <ele>210.6660156</ele>
        <time>2013-07-07T08:37:28Z</time>
      </trkpt>
      <trkpt lat="46.5814" lon="4.76872">
        <ele>211.1467285</ele>
        <time>2013-07-07T08:37:44Z</time>
      </trkpt>
      <trkpt lat="46.58188" lon="4.7688">
        <ele>211.1467285</ele>
        <time>2013-07-07T08:37:59Z</time>
      </trkpt>
      <trkpt lat="46.58232" lon="4.7689">
        <ele>211.6274414</ele>
        <time>2013-07-07T08:38:13Z</time>
      </trkpt>
      <trkpt lat="46.58235" lon="4.76892">
        <ele>211.6274414</ele>
        <time>2013-07-07T08:38:15Z</time>
      </trkpt>
      <trkpt lat="46.58247" lon="4.76895">
        <ele>210.6660156</ele>
        <time>2013-07-07T08:38:28Z</time>
      </trkpt>
      <trkpt lat="46.58259" lon="4.76899">
        <ele>210.1854248</ele>
        <time>2013-07-07T08:45:21Z</time>
      </trkpt>
      <trkpt lat="46.58261" lon="4.769">
        <ele>209.704834</ele>
        <time>2013-07-07T08:45:23Z</time>
      </trkpt>
      <trkpt lat="46.58282" lon="4.76911">
        <ele>209.2241211</ele>
        <time>2013-07-07T08:45:32Z</time>
      </trkpt>
      <trkpt lat="46.58318" lon="4.76921">
        <ele>209.2241211</ele>
        <time>2013-07-07T08:45:43Z</time>
      </trkpt>
      <trkpt lat="46.5838" lon="4.76925">
        <ele>207.3013916</ele>
        <time>2013-07-07T08:45:59Z</time>
      </trkpt>
      <trkpt lat="46.5845" lon="4.7692">
        <ele>205.8594971</ele>
        <time>2013-07-07T08:46:16Z</time>
      </trkpt>
      <trkpt lat="46.58494" lon="4.76911">
        <ele>202.494873</ele>
        <time>2013-07-07T08:46:24Z</time>
      </trkpt>
      <trkpt lat="46.58506" lon="4.7691">
        <ele>201.5335693</ele>
        <time>2013-07-07T08:46:26Z</time>
      </trkpt>
      <trkpt lat="46.58518" lon="4.76908">
        <ele>200.0916748</ele>
        <time>2013-07-07T08:46:28Z</time>
      </trkpt>
      <trkpt lat="46.58562" lon="4.76899">
        <ele>200.0916748</ele>
        <time>2013-07-07T08:46:35Z</time>
      </trkpt>
      <trkpt lat="46.58624" lon="4.76881">
        <ele>200.0916748</ele>
        <time>2013-07-07T08:46:49Z</time>
      </trkpt>
      <trkpt lat="46.58674" lon="4.76862">
        <ele>202.0142822</ele>
        <time>2013-07-07T08:47:03Z</time>
      </trkpt>
      <trkpt lat="46.58725" lon="4.76857">
        <ele>205.3787842</ele>
        <time>2013-07-07T08:47:18Z</time>
      </trkpt>
      <trkpt lat="46.58757" lon="4.76857">
        <ele>208.2628174</ele>
        <time>2013-07-07T08:47:33Z</time>
      </trkpt>
      <trkpt lat="46.58769" lon="4.76863">
        <ele>209.704834</ele>
        <time>2013-07-07T08:47:40Z</time>
      </trkpt>
      <trkpt lat="46.58823" lon="4.769">
        <ele>208.2628174</ele>
        <time>2013-07-07T08:48:00Z</time>
      </trkpt>
      <trkpt lat="46.58812" lon="4.76952">
        <ele>207.7821045</ele>
        <time>2013-07-07T08:48:11Z</time>
      </trkpt>
      <trkpt lat="46.58796" lon="4.7702">
        <ele>202.9754639</ele>
        <time>2013-07-07T08:48:20Z</time>
      </trkpt>
      <trkpt lat="46.58794" lon="4.77027">
        <ele>202.9754639</ele>
        <time>2013-07-07T08:48:21Z</time>
      </trkpt>
      <trkpt lat="46.58783" lon="4.77069">
        <ele>201.0528564</ele>
        <time>2013-07-07T08:48:26Z</time>
      </trkpt>
      <trkpt lat="46.58774" lon="4.77105">
        <ele>199.130127</ele>
        <time>2013-07-07T08:48:30Z</time>
      </trkpt>
      <trkpt lat="46.58762" lon="4.77217">
        <ele>196.2463379</ele>
        <time>2013-07-07T08:48:42Z</time>
      </trkpt>
      <trkpt lat="46.58754" lon="4.77296">
        <ele>194.8043213</ele>
        <time>2013-07-07T08:48:52Z</time>
      </trkpt>
      <trkpt lat="46.58753" lon="4.77311">
        <ele>195.765625</ele>
        <time>2013-07-07T08:48:54Z</time>
      </trkpt>
      <trkpt lat="46.5875" lon="4.77339">
        <ele>196.2463379</ele>
        <time>2013-07-07T08:48:58Z</time>
      </trkpt>
      <trkpt lat="46.58748" lon="4.77374">
        <ele>196.7269287</ele>
        <time>2013-07-07T08:49:03Z</time>
      </trkpt>
      <trkpt lat="46.58739" lon="4.77469">
        <ele>196.2463379</ele>
        <time>2013-07-07T08:49:16Z</time>
      </trkpt>
      <trkpt lat="46.58728" lon="4.77573">
        <ele>195.765625</ele>
        <time>2013-07-07T08:49:31Z</time>
      </trkpt>
      <trkpt lat="46.58722" lon="4.77594">
        <ele>196.7269287</ele>
        <time>2013-07-07T08:49:35Z</time>
      </trkpt>
      <trkpt lat="46.58709" lon="4.77621">
        <ele>196.7269287</ele>
        <time>2013-07-07T08:49:40Z</time>
      </trkpt>
      <trkpt lat="46.58702" lon="4.7764">
        <ele>197.2075195</ele>
        <time>2013-07-07T08:49:43Z</time>
      </trkpt>
      <trkpt lat="46.58657" lon="4.77751">
        <ele>199.130127</ele>
        <time>2013-07-07T08:50:04Z</time>
      </trkpt>
      <trkpt lat="46.58628" lon="4.77811">
        <ele>201.0528564</ele>
        <time>2013-07-07T08:50:19Z</time>
      </trkpt>
      <trkpt lat="46.5859" lon="4.77896">
        <ele>203.9368896</ele>
        <time>2013-07-07T08:50:43Z</time>
      </trkpt>
      <trkpt lat="46.58551" lon="4.7797">
        <ele>205.8594971</ele>
        <time>2013-07-07T08:51:08Z</time>
      </trkpt>
      <trkpt lat="46.58527" lon="4.78008">
        <ele>206.3400879</ele>
        <time>2013-07-07T08:51:21Z</time>
      </trkpt>
      <trkpt lat="46.58503" lon="4.78054">
        <ele>207.3013916</ele>
        <time>2013-07-07T08:51:36Z</time>
      </trkpt>
      <trkpt lat="46.58485" lon="4.78128">
        <ele>209.2241211</ele>
        <time>2013-07-07T08:51:57Z</time>
      </trkpt>
      <trkpt lat="46.58468" lon="4.7818">
        <ele>209.2241211</ele>
        <time>2013-07-07T08:52:10Z</time>
      </trkpt>
      <trkpt lat="46.58442" lon="4.78255">
        <ele>209.704834</ele>
        <time>2013-07-07T08:52:28Z</time>
      </trkpt>
      <trkpt lat="46.58425" lon="4.78301">
        <ele>209.704834</ele>
        <time>2013-07-07T08:52:41Z</time>
      </trkpt>
      <trkpt lat="46.58431" lon="4.78315">
        <ele>208.7434082</ele>
        <time>2013-07-07T08:52:46Z</time>
      </trkpt>
      <trkpt lat="46.58473" lon="4.78333">
        <ele>207.3013916</ele>
        <time>2013-07-07T08:53:00Z</time>
      </trkpt>
      <trkpt lat="46.5851" lon="4.78347">
        <ele>206.3400879</ele>
        <time>2013-07-07T08:53:10Z</time>
      </trkpt>
      <trkpt lat="46.58586" lon="4.78378">
        <ele>206.8206787</ele>
        <time>2013-07-07T08:53:29Z</time>
      </trkpt>
      <trkpt lat="46.58653" lon="4.78403">
        <ele>206.3400879</ele>
        <time>2013-07-07T08:53:47Z</time>
      </trkpt>
      <trkpt lat="46.58729" lon="4.78439">
        <ele>203.9368896</ele>
        <time>2013-07-07T08:54:09Z</time>
      </trkpt>
      <trkpt lat="46.58737" lon="4.78442">
        <ele>205.3787842</ele>
        <time>2013-07-07T08:54:11Z</time>
      </trkpt>
      <trkpt lat="46.58756" lon="4.78453">
        <ele>204.4174805</ele>
        <time>2013-07-07T08:54:16Z</time>
      </trkpt>
      <trkpt lat="46.58832" lon="4.78499">
        <ele>202.9754639</ele>
        <time>2013-07-07T08:54:34Z</time>
      </trkpt>
      <trkpt lat="46.58879" lon="4.78526">
        <ele>201.5335693</ele>
        <time>2013-07-07T08:54:47Z</time>
      </trkpt>
      <trkpt lat="46.58934" lon="4.78558">
        <ele>202.0142822</ele>
        <time>2013-07-07T08:55:01Z</time>
      </trkpt>
      <trkpt lat="46.59023" lon="4.78607">
        <ele>202.9754639</ele>
        <time>2013-07-07T08:55:27Z</time>
      </trkpt>
      <trkpt lat="46.59084" lon="4.78641">
        <ele>204.4174805</ele>
        <time>2013-07-07T08:55:47Z</time>
      </trkpt>
      <trkpt lat="46.59157" lon="4.7868">
        <ele>205.3787842</ele>
        <time>2013-07-07T08:56:13Z</time>
      </trkpt>
      <trkpt lat="46.5921" lon="4.78708">
        <ele>208.2628174</ele>
        <time>2013-07-07T08:56:34Z</time>
      </trkpt>
      <trkpt lat="46.59215" lon="4.78723">
        <ele>208.7434082</ele>
        <time>2013-07-07T08:56:39Z</time>
      </trkpt>
      <trkpt lat="46.59221" lon="4.7873">
        <ele>207.7821045</ele>
        <time>2013-07-07T08:56:43Z</time>
      </trkpt>
      <trkpt lat="46.59274" lon="4.78762">
        <ele>208.2628174</ele>
        <time>2013-07-07T08:57:03Z</time>
      </trkpt>
      <trkpt lat="46.59352" lon="4.78814">
        <ele>207.3013916</ele>
        <time>2013-07-07T08:57:33Z</time>
      </trkpt>
      <trkpt lat="46.5941" lon="4.78854">
        <ele>208.7434082</ele>
        <time>2013-07-07T08:57:56Z</time>
      </trkpt>
      <trkpt lat="46.59474" lon="4.78897">
        <ele>209.2241211</ele>
        <time>2013-07-07T08:58:23Z</time>
      </trkpt>
      <trkpt lat="46.59527" lon="4.78939">
        <ele>208.7434082</ele>
        <time>2013-07-07T08:58:46Z</time>
      </trkpt>
      <trkpt lat="46.5957" lon="4.78981">
        <ele>209.2241211</ele>
        <time>2013-07-07T08:59:07Z</time>
      </trkpt>
      <trkpt lat="46.59627" lon="4.7904">
        <ele>209.2241211</ele>
        <time>2013-07-07T08:59:35Z</time>
      </trkpt>
      <trkpt lat="46.59682" lon="4.79096">
        <ele>209.704834</ele>
        <time>2013-07-07T09:00:01Z</time>
      </trkpt>
      <trkpt lat="46.59725" lon="4.7914">
        <ele>211.1467285</ele>
        <time>2013-07-07T09:00:23Z</time>
      </trkpt>
      <trkpt lat="46.59739" lon="4.79154">
        <ele>210.6660156</ele>
        <time>2013-07-07T09:00:30Z</time>
      </trkpt>
      <trkpt lat="46.5979" lon="4.79205">
        <ele>211.6274414</ele>
        <time>2013-07-07T09:00:55Z</time>
      </trkpt>
      <trkpt lat="46.59801" lon="4.79218">
        <ele>210.6660156</ele>
        <time>2013-07-07T09:01:01Z</time>
      </trkpt>
      <trkpt lat="46.59816" lon="4.79234">
        <ele>211.6274414</ele>
        <time>2013-07-07T09:01:09Z</time>
      </trkpt>
      <trkpt lat="46.59817" lon="4.79236">
        <ele>212.1080322</ele>
        <time>2013-07-07T09:01:13Z</time>
      </trkpt>
      <trkpt lat="46.59853" lon="4.79209">
        <ele>209.704834</ele>
        <time>2013-07-07T09:01:24Z</time>
      </trkpt>
      <trkpt lat="46.59887" lon="4.79184">
        <ele>208.7434082</ele>
        <time>2013-07-07T09:01:35Z</time>
      </trkpt>
      <trkpt lat="46.59897" lon="4.79174">
        <ele>208.7434082</ele>
        <time>2013-07-07T09:01:38Z</time>
      </trkpt>
      <trkpt lat="46.59922" lon="4.79152">
        <ele>207.7821045</ele>
        <time>2013-07-07T09:01:44Z</time>
      </trkpt>
      <trkpt lat="46.59943" lon="4.79146">
        <ele>205.8594971</ele>
        <time>2013-07-07T09:01:49Z</time>
      </trkpt>
      <trkpt lat="46.59996" lon="4.79219">
        <ele>205.3787842</ele>
        <time>2013-07-07T09:02:06Z</time>
      </trkpt>
      <trkpt lat="46.60031" lon="4.79268">
        <ele>205.8594971</ele>
        <time>2013-07-07T09:02:17Z</time>
      </trkpt>
      <trkpt lat="46.6006" lon="4.79317">
        <ele>204.4174805</ele>
        <time>2013-07-07T09:02:28Z</time>
      </trkpt>
      <trkpt lat="46.60111" lon="4.79414">
        <ele>205.3787842</ele>
        <time>2013-07-07T09:02:49Z</time>
      </trkpt>
      <trkpt lat="46.6017" lon="4.79522">
        <ele>204.8980713</ele>
        <time>2013-07-07T09:03:13Z</time>
      </trkpt>
      <trkpt lat="46.60195" lon="4.79568">
        <ele>208.2628174</ele>
        <time>2013-07-07T09:03:25Z</time>
      </trkpt>
      <trkpt lat="46.60239" lon="4.79652">
        <ele>207.3013916</ele>
        <time>2013-07-07T09:03:44Z</time>
      </trkpt>
      <trkpt lat="46.60254" lon="4.7968">
        <ele>205.8594971</ele>
        <time>2013-07-07T09:03:50Z</time>
      </trkpt>
      <trkpt lat="46.60272" lon="4.79713">
        <ele>206.8206787</ele>
        <time>2013-07-07T09:03:57Z</time>
      </trkpt>
      <trkpt lat="46.6031" lon="4.7979">
        <ele>207.3013916</ele>
        <time>2013-07-07T09:04:14Z</time>
      </trkpt>
      <trkpt lat="46.60344" lon="4.79829">
        <ele>205.8594971</ele>
        <time>2013-07-07T09:04:25Z</time>
      </trkpt>
      <trkpt lat="46.60369" lon="4.79865">
        <ele>205.3787842</ele>
        <time>2013-07-07T09:04:33Z</time>
      </trkpt>
      <trkpt lat="46.60422" lon="4.7993">
        <ele>207.3013916</ele>
        <time>2013-07-07T09:04:53Z</time>
      </trkpt>
      <trkpt lat="46.60456" lon="4.79972">
        <ele>206.8206787</ele>
        <time>2013-07-07T09:05:08Z</time>
      </trkpt>
      <trkpt lat="46.60483" lon="4.80008">
        <ele>207.7821045</ele>
        <time>2013-07-07T09:05:20Z</time>
      </trkpt>
      <trkpt lat="46.60494" lon="4.80022">
        <ele>206.3400879</ele>
        <time>2013-07-07T09:05:25Z</time>
      </trkpt>
      <trkpt lat="46.60503" lon="4.80034">
        <ele>208.7434082</ele>
        <time>2013-07-07T09:05:29Z</time>
      </trkpt>
      <trkpt lat="46.6054" lon="4.80088">
        <ele>210.1854248</ele>
        <time>2013-07-07T09:05:47Z</time>
      </trkpt>
      <trkpt lat="46.60548" lon="4.8011">
        <ele>209.704834</ele>
        <time>2013-07-07T09:05:53Z</time>
      </trkpt>
      <trkpt lat="46.60562" lon="4.80099">
        <ele>209.2241211</ele>
        <time>2013-07-07T09:05:59Z</time>
      </trkpt>
      <trkpt lat="46.60602" lon="4.79974">
        <ele>206.3400879</ele>
        <time>2013-07-07T09:06:17Z</time>
      </trkpt>
      <trkpt lat="46.60604" lon="4.79968">
        <ele>206.3400879</ele>
        <time>2013-07-07T09:06:18Z</time>
      </trkpt>
      <trkpt lat="46.60614" lon="4.79939">
        <ele>205.8594971</ele>
        <time>2013-07-07T09:06:22Z</time>
      </trkpt>
      <trkpt lat="46.6065" lon="4.7984">
        <ele>202.494873</ele>
        <time>2013-07-07T09:06:33Z</time>
      </trkpt>
      <trkpt lat="46.60706" lon="4.79643">
        <ele>201.0528564</ele>
        <time>2013-07-07T09:06:53Z</time>
      </trkpt>
      <trkpt lat="46.60736" lon="4.79527">
        <ele>198.6495361</ele>
        <time>2013-07-07T09:07:06Z</time>
      </trkpt>
      <trkpt lat="46.60746" lon="4.79483">
        <ele>200.0916748</ele>
        <time>2013-07-07T09:07:11Z</time>
      </trkpt>
      <trkpt lat="46.60779" lon="4.79337">
        <ele>197.2075195</ele>
        <time>2013-07-07T09:07:29Z</time>
      </trkpt>
      <trkpt lat="46.60789" lon="4.79297">
        <ele>196.2463379</ele>
        <time>2013-07-07T09:07:34Z</time>
      </trkpt>
      <trkpt lat="46.60828" lon="4.7919">
        <ele>191.9202881</ele>
        <time>2013-07-07T09:07:47Z</time>
      </trkpt>
      <trkpt lat="46.60831" lon="4.79182">
        <ele>191.9202881</ele>
        <time>2013-07-07T09:07:48Z</time>
      </trkpt>
      <trkpt lat="46.6086" lon="4.79104">
        <ele>189.5169678</ele>
        <time>2013-07-07T09:07:57Z</time>
      </trkpt>
      <trkpt lat="46.60874" lon="4.79071">
        <ele>188.5557861</ele>
        <time>2013-07-07T09:08:01Z</time>
      </trkpt>
      <trkpt lat="46.60909" lon="4.79066">
        <ele>189.036377</ele>
        <time>2013-07-07T09:08:08Z</time>
      </trkpt>
      <trkpt lat="46.61009" lon="4.79125">
        <ele>189.9976807</ele>
        <time>2013-07-07T09:08:26Z</time>
      </trkpt>
      <trkpt lat="46.61031" lon="4.79136">
        <ele>188.5557861</ele>
        <time>2013-07-07T09:08:30Z</time>
      </trkpt>
      <trkpt lat="46.6111" lon="4.79178">
        <ele>189.036377</ele>
        <time>2013-07-07T09:08:47Z</time>
      </trkpt>
      <trkpt lat="46.61142" lon="4.7919">
        <ele>189.9976807</ele>
        <time>2013-07-07T09:08:55Z</time>
      </trkpt>
      <trkpt lat="46.61212" lon="4.79192">
        <ele>189.036377</ele>
        <time>2013-07-07T09:09:13Z</time>
      </trkpt>
      <trkpt lat="46.61228" lon="4.79196">
        <ele>189.036377</ele>
        <time>2013-07-07T09:09:17Z</time>
      </trkpt>
      <trkpt lat="46.61279" lon="4.79234">
        <ele>189.036377</ele>
        <time>2013-07-07T09:09:32Z</time>
      </trkpt>
      <trkpt lat="46.61349" lon="4.79298">
        <ele>189.5169678</ele>
        <time>2013-07-07T09:09:50Z</time>
      </trkpt>
      <trkpt lat="46.61416" lon="4.79348">
        <ele>189.5169678</ele>
        <time>2013-07-07T09:10:06Z</time>
      </trkpt>
      <trkpt lat="46.61424" lon="4.79354">
        <ele>189.9976807</ele>
        <time>2013-07-07T09:10:09Z</time>
      </trkpt>
      <trkpt lat="46.61441" lon="4.79312">
        <ele>189.036377</ele>
        <time>2013-07-07T09:10:17Z</time>
      </trkpt>
      <trkpt lat="46.61446" lon="4.79295">
        <ele>189.9976807</ele>
        <time>2013-07-07T09:10:20Z</time>
      </trkpt>
      <trkpt lat="46.6146" lon="4.79275">
        <ele>189.036377</ele>
        <time>2013-07-07T09:10:24Z</time>
      </trkpt>
      <trkpt lat="46.61492" lon="4.79231">
        <ele>189.5169678</ele>
        <time>2013-07-07T09:10:33Z</time>
      </trkpt>
      <trkpt lat="46.61549" lon="4.79169">
        <ele>190.4783936</ele>
        <time>2013-07-07T09:10:50Z</time>
      </trkpt>
      <trkpt lat="46.61561" lon="4.79161">
        <ele>188.5557861</ele>
        <time>2013-07-07T09:10:55Z</time>
      </trkpt>
      <trkpt lat="46.61606" lon="4.79145">
        <ele>189.036377</ele>
        <time>2013-07-07T09:11:05Z</time>
      </trkpt>
      <trkpt lat="46.61655" lon="4.79163">
        <ele>189.036377</ele>
        <time>2013-07-07T09:11:19Z</time>
      </trkpt>
      <trkpt lat="46.61715" lon="4.79228">
        <ele>189.036377</ele>
        <time>2013-07-07T09:11:38Z</time>
      </trkpt>
      <trkpt lat="46.61717" lon="4.79232">
        <ele>189.036377</ele>
        <time>2013-07-07T09:11:39Z</time>
      </trkpt>
      <trkpt lat="46.61749" lon="4.79286">
        <ele>188.5557861</ele>
        <time>2013-07-07T09:11:50Z</time>
      </trkpt>
      <trkpt lat="46.61804" lon="4.79346">
        <ele>187.5943604</ele>
        <time>2013-07-07T09:12:07Z</time>
      </trkpt>
      <trkpt lat="46.61866" lon="4.79421">
        <ele>188.0750732</ele>
        <time>2013-07-07T09:12:28Z</time>
      </trkpt>
      <trkpt lat="46.61874" lon="4.79432">
        <ele>186.6331787</ele>
        <time>2013-07-07T09:12:31Z</time>
      </trkpt>
      <trkpt lat="46.61923" lon="4.79506">
        <ele>189.036377</ele>
        <time>2013-07-07T09:12:52Z</time>
      </trkpt>
      <trkpt lat="46.61974" lon="4.79586">
        <ele>189.036377</ele>
        <time>2013-07-07T09:13:13Z</time>
      </trkpt>
      <trkpt lat="46.62" lon="4.79667">
        <ele>188.0750732</ele>
        <time>2013-07-07T09:13:30Z</time>
      </trkpt>
      <trkpt lat="46.62011" lon="4.79716">
        <ele>188.5557861</ele>
        <time>2013-07-07T09:13:39Z</time>
      </trkpt>
      <trkpt lat="46.62028" lon="4.7984">
        <ele>189.5169678</ele>
        <time>2013-07-07T09:14:00Z</time>
      </trkpt>
      <trkpt lat="46.62038" lon="4.79882">
        <ele>187.1137695</ele>
        <time>2013-07-07T09:14:08Z</time>
      </trkpt>
      <trkpt lat="46.62068" lon="4.79974">
        <ele>187.5943604</ele>
        <time>2013-07-07T09:14:26Z</time>
      </trkpt>
      <trkpt lat="46.62102" lon="4.80068">
        <ele>187.1137695</ele>
        <time>2013-07-07T09:14:43Z</time>
      </trkpt>
      <trkpt lat="46.6212" lon="4.80174">
        <ele>186.1524658</ele>
        <time>2013-07-07T09:15:00Z</time>
      </trkpt>
      <trkpt lat="46.62158" lon="4.80253">
        <ele>186.1524658</ele>
        <time>2013-07-07T09:15:16Z</time>
      </trkpt>
      <trkpt lat="46.62178" lon="4.80283">
        <ele>186.6331787</ele>
        <time>2013-07-07T09:15:23Z</time>
      </trkpt>
      <trkpt lat="46.62223" lon="4.80321">
        <ele>186.6331787</ele>
        <time>2013-07-07T09:15:38Z</time>
      </trkpt>
      <trkpt lat="46.62263" lon="4.80343">
        <ele>188.5557861</ele>
        <time>2013-07-07T09:15:56Z</time>
      </trkpt>
      <trkpt lat="46.62304" lon="4.80364">
        <ele>187.1137695</ele>
        <time>2013-07-07T09:16:09Z</time>
      </trkpt>
      <trkpt lat="46.62371" lon="4.80388">
        <ele>188.0750732</ele>
        <time>2013-07-07T09:16:31Z</time>
      </trkpt>
      <trkpt lat="46.62413" lon="4.80392">
        <ele>188.0750732</ele>
        <time>2013-07-07T09:16:45Z</time>
      </trkpt>
      <trkpt lat="46.62483" lon="4.8038">
        <ele>189.036377</ele>
        <time>2013-07-07T09:17:07Z</time>
      </trkpt>
      <trkpt lat="46.62574" lon="4.80345">
        <ele>190.4783936</ele>
        <time>2013-07-07T09:17:37Z</time>
      </trkpt>
      <trkpt lat="46.62634" lon="4.80309">
        <ele>191.9202881</ele>
        <time>2013-07-07T09:17:57Z</time>
      </trkpt>
      <trkpt lat="46.62692" lon="4.80287">
        <ele>193.8430176</ele>
        <time>2013-07-07T09:18:17Z</time>
      </trkpt>
      <trkpt lat="46.62737" lon="4.80273">
        <ele>193.3623047</ele>
        <time>2013-07-07T09:18:33Z</time>
      </trkpt>
      <trkpt lat="46.62741" lon="4.80272">
        <ele>193.3623047</ele>
        <time>2013-07-07T09:18:43Z</time>
      </trkpt>
      <trkpt lat="46.62741" lon="4.80272">
        <ele>193.8430176</ele>
        <time>2013-07-07T09:19:25Z</time>
      </trkpt>
      <trkpt lat="46.62732" lon="4.80342">
        <ele>192.401123</ele>
        <time>2013-07-07T09:19:40Z</time>
      </trkpt>
      <trkpt lat="46.62726" lon="4.80383">
        <ele>189.9976807</ele>
        <time>2013-07-07T09:19:47Z</time>
      </trkpt>
      <trkpt lat="46.62717" lon="4.80474">
        <ele>187.1137695</ele>
        <time>2013-07-07T09:19:59Z</time>
      </trkpt>
      <trkpt lat="46.62698" lon="4.80601">
        <ele>186.6331787</ele>
        <time>2013-07-07T09:20:18Z</time>
      </trkpt>
      <trkpt lat="46.62694" lon="4.80627">
        <ele>186.1524658</ele>
        <time>2013-07-07T09:20:22Z</time>
      </trkpt>
      <trkpt lat="46.62675" lon="4.80771">
        <ele>186.1524658</ele>
        <time>2013-07-07T09:20:43Z</time>
      </trkpt>
      <trkpt lat="46.62666" lon="4.80868">
        <ele>185.6717529</ele>
        <time>2013-07-07T09:20:57Z</time>
      </trkpt>
      <trkpt lat="46.62663" lon="4.80958">
        <ele>185.6717529</ele>
        <time>2013-07-07T09:21:13Z</time>
      </trkpt>
      <trkpt lat="46.62658" lon="4.80975">
        <ele>185.1911621</ele>
        <time>2013-07-07T09:21:16Z</time>
      </trkpt>
      <trkpt lat="46.62627" lon="4.81081">
        <ele>185.6717529</ele>
        <time>2013-07-07T09:21:34Z</time>
      </trkpt>
      <trkpt lat="46.62591" lon="4.81183">
        <ele>187.1137695</ele>
        <time>2013-07-07T09:21:53Z</time>
      </trkpt>
      <trkpt lat="46.62555" lon="4.81263">
        <ele>188.5557861</ele>
        <time>2013-07-07T09:22:12Z</time>
      </trkpt>
      <trkpt lat="46.6252" lon="4.81311">
        <ele>189.036377</ele>
        <time>2013-07-07T09:22:28Z</time>
      </trkpt>
      <trkpt lat="46.62496" lon="4.8136">
        <ele>190.4783936</ele>
        <time>2013-07-07T09:22:41Z</time>
      </trkpt>
      <trkpt lat="46.62504" lon="4.81397">
        <ele>190.9589844</ele>
        <time>2013-07-07T09:22:52Z</time>
      </trkpt>
      <trkpt lat="46.62533" lon="4.81437">
        <ele>192.8817139</ele>
        <time>2013-07-07T09:23:08Z</time>
      </trkpt>
      <trkpt lat="46.62528" lon="4.81472">
        <ele>192.8817139</ele>
        <time>2013-07-07T09:23:20Z</time>
      </trkpt>
      <trkpt lat="46.62538" lon="4.81481">
        <ele>194.3237305</ele>
        <time>2013-07-07T09:23:24Z</time>
      </trkpt>
      <trkpt lat="46.62593" lon="4.81498">
        <ele>191.9202881</ele>
        <time>2013-07-07T09:23:41Z</time>
      </trkpt>
      <trkpt lat="46.62616" lon="4.81502">
        <ele>190.9589844</ele>
        <time>2013-07-07T09:23:48Z</time>
      </trkpt>
      <trkpt lat="46.62686" lon="4.81492">
        <ele>189.5169678</ele>
        <time>2013-07-07T09:24:06Z</time>
      </trkpt>
      <trkpt lat="46.62727" lon="4.8148">
        <ele>188.5557861</ele>
        <time>2013-07-07T09:24:16Z</time>
      </trkpt>
      <trkpt lat="46.62809" lon="4.8142">
        <ele>188.5557861</ele>
        <time>2013-07-07T09:24:37Z</time>
      </trkpt>
      <trkpt lat="46.62882" lon="4.81393">
        <ele>188.5557861</ele>
        <time>2013-07-07T09:24:56Z</time>
      </trkpt>
      <trkpt lat="46.62928" lon="4.81397">
        <ele>187.5943604</ele>
        <time>2013-07-07T09:25:09Z</time>
      </trkpt>
      <trkpt lat="46.62998" lon="4.81416">
        <ele>188.5557861</ele>
        <time>2013-07-07T09:25:27Z</time>
      </trkpt>
      <trkpt lat="46.63067" lon="4.81399">
        <ele>188.0750732</ele>
        <time>2013-07-07T09:25:46Z</time>
      </trkpt>
      <trkpt lat="46.63122" lon="4.81378">
        <ele>188.5557861</ele>
        <time>2013-07-07T09:26:02Z</time>
      </trkpt>
      <trkpt lat="46.63149" lon="4.81361">
        <ele>188.0750732</ele>
        <time>2013-07-07T09:26:19Z</time>
      </trkpt>
      <trkpt lat="46.63219" lon="4.81442">
        <ele>189.036377</ele>
        <time>2013-07-07T09:26:39Z</time>
      </trkpt>
      <trkpt lat="46.6321" lon="4.81494">
        <ele>189.5169678</ele>
        <time>2013-07-07T09:26:51Z</time>
      </trkpt>
      <trkpt lat="46.63199" lon="4.81573">
        <ele>189.9976807</ele>
        <time>2013-07-07T09:27:08Z</time>
      </trkpt>
      <trkpt lat="46.63186" lon="4.81658">
        <ele>190.4783936</ele>
        <time>2013-07-07T09:27:27Z</time>
      </trkpt>
      <trkpt lat="46.63174" lon="4.8173">
        <ele>190.9589844</ele>
        <time>2013-07-07T09:27:44Z</time>
      </trkpt>
      <trkpt lat="46.63154" lon="4.81828">
        <ele>191.4395752</ele>
        <time>2013-07-07T09:28:06Z</time>
      </trkpt>
      <trkpt lat="46.63141" lon="4.81899">
        <ele>191.4395752</ele>
        <time>2013-07-07T09:28:25Z</time>
      </trkpt>
      <trkpt lat="46.63147" lon="4.81909">
        <ele>191.4395752</ele>
        <time>2013-07-07T09:28:29Z</time>
      </trkpt>
      <trkpt lat="46.63189" lon="4.81911">
        <ele>191.9202881</ele>
        <time>2013-07-07T09:28:44Z</time>
      </trkpt>
      <trkpt lat="46.6325" lon="4.81932">
        <ele>192.401123</ele>
        <time>2013-07-07T09:29:02Z</time>
      </trkpt>
      <trkpt lat="46.63312" lon="4.81975">
        <ele>189.9976807</ele>
        <time>2013-07-07T09:29:22Z</time>
      </trkpt>
      <trkpt lat="46.63363" lon="4.82029">
        <ele>191.9202881</ele>
        <time>2013-07-07T09:29:43Z</time>
      </trkpt>
      <trkpt lat="46.63365" lon="4.82031">
        <ele>191.9202881</ele>
        <time>2013-07-07T09:29:44Z</time>
      </trkpt>
      <trkpt lat="46.63365" lon="4.82039">
        <ele>192.8817139</ele>
        <time>2013-07-07T09:29:47Z</time>
      </trkpt>
      <trkpt lat="46.63364" lon="4.82042">
        <ele>193.3623047</ele>
        <time>2013-07-07T09:29:48Z</time>
      </trkpt>
      <trkpt lat="46.63342" lon="4.82102">
        <ele>192.8817139</ele>
        <time>2013-07-07T09:30:04Z</time>
      </trkpt>
      <trkpt lat="46.63317" lon="4.82165">
        <ele>193.3623047</ele>
        <time>2013-07-07T09:30:21Z</time>
      </trkpt>
      <trkpt lat="46.63293" lon="4.82232">
        <ele>194.8043213</ele>
        <time>2013-07-07T09:30:42Z</time>
      </trkpt>
      <trkpt lat="46.63273" lon="4.82291">
        <ele>195.2849121</ele>
        <time>2013-07-07T09:31:04Z</time>
      </trkpt>
      <trkpt lat="46.63244" lon="4.82376">
        <ele>197.2075195</ele>
        <time>2013-07-07T09:31:35Z</time>
      </trkpt>
      <trkpt lat="46.63235" lon="4.82402">
        <ele>198.6495361</ele>
        <time>2013-07-07T09:31:52Z</time>
      </trkpt>
      <trkpt lat="46.63234" lon="4.82402">
        <ele>200.0916748</ele>
        <time>2013-07-07T09:31:54Z</time>
      </trkpt>
      <trkpt lat="46.63233" lon="4.82401">
        <ele>197.6882324</ele>
        <time>2013-07-07T09:31:56Z</time>
      </trkpt>
      <trkpt lat="46.63233" lon="4.82402">
        <ele>197.2075195</ele>
        <time>2013-07-07T09:32:20Z</time>
      </trkpt>
      <trkpt lat="46.63233" lon="4.82406">
        <ele>197.6882324</ele>
        <time>2013-07-07T09:35:35Z</time>
      </trkpt>
      <trkpt lat="46.63223" lon="4.82437">
        <ele>198.6495361</ele>
        <time>2013-07-07T09:36:02Z</time>
      </trkpt>
      <trkpt lat="46.63211" lon="4.82469">
        <ele>199.130127</ele>
        <time>2013-07-07T09:36:27Z</time>
      </trkpt>
      <trkpt lat="46.63201" lon="4.82498">
        <ele>199.6108398</ele>
        <time>2013-07-07T09:36:50Z</time>
      </trkpt>
      <trkpt lat="46.6319" lon="4.82527">
        <ele>200.5722656</ele>
        <time>2013-07-07T09:37:12Z</time>
      </trkpt>
      <trkpt lat="46.63179" lon="4.8256">
        <ele>201.0528564</ele>
        <time>2013-07-07T09:37:38Z</time>
      </trkpt>
      <trkpt lat="46.63175" lon="4.82576">
        <ele>202.0142822</ele>
        <time>2013-07-07T09:37:52Z</time>
      </trkpt>
      <trkpt lat="46.63179" lon="4.8258">
        <ele>201.0528564</ele>
        <time>2013-07-07T09:37:56Z</time>
      </trkpt>
      <trkpt lat="46.632" lon="4.82601">
        <ele>202.0142822</ele>
        <time>2013-07-07T09:38:18Z</time>
      </trkpt>
      <trkpt lat="46.63234" lon="4.82634">
        <ele>202.0142822</ele>
        <time>2013-07-07T09:38:53Z</time>
      </trkpt>
      <trkpt lat="46.63264" lon="4.82663">
        <ele>202.494873</ele>
        <time>2013-07-07T09:39:25Z</time>
      </trkpt>
      <trkpt lat="46.63282" lon="4.82687">
        <ele>202.494873</ele>
        <time>2013-07-07T09:39:50Z</time>
      </trkpt>
      <trkpt lat="46.63289" lon="4.82712">
        <ele>203.4561768</ele>
        <time>2013-07-07T09:40:11Z</time>
      </trkpt>
      <trkpt lat="46.63293" lon="4.82734">
        <ele>203.4561768</ele>
        <time>2013-07-07T09:40:35Z</time>
      </trkpt>
      <trkpt lat="46.63304" lon="4.82739">
        <ele>203.9368896</ele>
        <time>2013-07-07T09:40:59Z</time>
      </trkpt>
      <trkpt lat="46.63306" lon="4.8274">
        <ele>203.9368896</ele>
        <time>2013-07-07T09:41:22Z</time>
      </trkpt>
      <trkpt lat="46.63306" lon="4.82741">
        <ele>203.4561768</ele>
        <time>2013-07-07T09:44:08Z</time>
      </trkpt>
      <trkpt lat="46.63299" lon="4.82748">
        <ele>203.9368896</ele>
        <time>2013-07-07T09:44:19Z</time>
      </trkpt>
      <trkpt lat="46.633" lon="4.82755">
        <ele>203.4561768</ele>
        <time>2013-07-07T09:44:29Z</time>
      </trkpt>
      <trkpt lat="46.63306" lon="4.82796">
        <ele>203.9368896</ele>
        <time>2013-07-07T09:44:46Z</time>
      </trkpt>
      <trkpt lat="46.63323" lon="4.8285">
        <ele>204.8980713</ele>
        <time>2013-07-07T09:45:06Z</time>
      </trkpt>
      <trkpt lat="46.63348" lon="4.82898">
        <ele>205.8594971</ele>
        <time>2013-07-07T09:45:26Z</time>
      </trkpt>
      <trkpt lat="46.6337" lon="4.82965">
        <ele>206.8206787</ele>
        <time>2013-07-07T09:45:51Z</time>
      </trkpt>
      <trkpt lat="46.63373" lon="4.82993">
        <ele>208.2628174</ele>
        <time>2013-07-07T09:46:08Z</time>
      </trkpt>
      <trkpt lat="46.63374" lon="4.82993">
        <ele>208.7434082</ele>
        <time>2013-07-07T09:46:12Z</time>
      </trkpt>
      <trkpt lat="46.63375" lon="4.82993">
        <ele>207.7821045</ele>
        <time>2013-07-07T09:46:25Z</time>
      </trkpt>
      <trkpt lat="46.63374" lon="4.82993">
        <ele>208.7434082</ele>
        <time>2013-07-07T09:52:38Z</time>
      </trkpt>
      <trkpt lat="46.63374" lon="4.83002">
        <ele>207.7821045</ele>
        <time>2013-07-07T09:54:03Z</time>
      </trkpt>
      <trkpt lat="46.63375" lon="4.83028">
        <ele>208.7434082</ele>
        <time>2013-07-07T09:54:20Z</time>
      </trkpt>
      <trkpt lat="46.63378" lon="4.83073">
        <ele>212.1080322</ele>
        <time>2013-07-07T09:54:49Z</time>
      </trkpt>
      <trkpt lat="46.6338" lon="4.83092">
        <ele>213.0693359</ele>
        <time>2013-07-07T09:55:09Z</time>
      </trkpt>
      <trkpt lat="46.63382" lon="4.83112">
        <ele>214.0306396</ele>
        <time>2013-07-07T09:55:30Z</time>
      </trkpt>
      <trkpt lat="46.63382" lon="4.83119">
        <ele>214.9919434</ele>
        <time>2013-07-07T09:55:54Z</time>
      </trkpt>
      <trkpt lat="46.63382" lon="4.83122">
        <ele>214.9919434</ele>
        <time>2013-07-07T09:56:22Z</time>
      </trkpt>
      <trkpt lat="46.6338" lon="4.83134">
        <ele>216.43396</ele>
        <time>2013-07-07T09:57:00Z</time>
      </trkpt>
      <trkpt lat="46.63379" lon="4.8316">
        <ele>217.3953857</ele>
        <time>2013-07-07T09:57:22Z</time>
      </trkpt>
      <trkpt lat="46.6338" lon="4.832">
        <ele>219.3179932</ele>
        <time>2013-07-07T09:57:52Z</time>
      </trkpt>
      <trkpt lat="46.63384" lon="4.83231">
        <ele>220.7598877</ele>
        <time>2013-07-07T09:58:19Z</time>
      </trkpt>
      <trkpt lat="46.63384" lon="4.83241">
        <ele>221.2406006</ele>
        <time>2013-07-07T09:58:35Z</time>
      </trkpt>
      <trkpt lat="46.63387" lon="4.83255">
        <ele>222.2017822</ele>
        <time>2013-07-07T09:59:53Z</time>
      </trkpt>
      <trkpt lat="46.63392" lon="4.83276">
        <ele>223.6437988</ele>
        <time>2013-07-07T10:00:15Z</time>
      </trkpt>
      <trkpt lat="46.63396" lon="4.83294">
        <ele>225.5665283</ele>
        <time>2013-07-07T10:00:35Z</time>
      </trkpt>
      <trkpt lat="46.63401" lon="4.83306">
        <ele>227.0085449</ele>
        <time>2013-07-07T10:00:54Z</time>
      </trkpt>
      <trkpt lat="46.63414" lon="4.83327">
        <ele>228.4504395</ele>
        <time>2013-07-07T10:01:18Z</time>
      </trkpt>
      <trkpt lat="46.63428" lon="4.83352">
        <ele>229.4117432</ele>
        <time>2013-07-07T10:01:43Z</time>
      </trkpt>
      <trkpt lat="46.63439" lon="4.83378">
        <ele>231.3343506</ele>
        <time>2013-07-07T10:02:08Z</time>
      </trkpt>
      <trkpt lat="46.63452" lon="4.83412">
        <ele>233.2570801</ele>
        <time>2013-07-07T10:02:38Z</time>
      </trkpt>
      <trkpt lat="46.63454" lon="4.83423">
        <ele>234.6990967</ele>
        <time>2013-07-07T10:02:58Z</time>
      </trkpt>
      <trkpt lat="46.63456" lon="4.83427">
        <ele>233.7376709</ele>
        <time>2013-07-07T10:03:23Z</time>
      </trkpt>
      <trkpt lat="46.63464" lon="4.8344">
        <ele>235.1796875</ele>
        <time>2013-07-07T10:07:35Z</time>
      </trkpt>
      <trkpt lat="46.63471" lon="4.83463">
        <ele>237.1022949</ele>
        <time>2013-07-07T10:07:56Z</time>
      </trkpt>
      <trkpt lat="46.63476" lon="4.83481">
        <ele>238.5443115</ele>
        <time>2013-07-07T10:08:16Z</time>
      </trkpt>
      <trkpt lat="46.63483" lon="4.835">
        <ele>239.5054932</ele>
        <time>2013-07-07T10:08:35Z</time>
      </trkpt>
      <trkpt lat="46.6349" lon="4.83517">
        <ele>240.9476318</ele>
        <time>2013-07-07T10:08:54Z</time>
      </trkpt>
      <trkpt lat="46.63498" lon="4.83539">
        <ele>242.3896484</ele>
        <time>2013-07-07T10:09:18Z</time>
      </trkpt>
      <trkpt lat="46.63503" lon="4.83557">
        <ele>243.831543</ele>
        <time>2013-07-07T10:09:35Z</time>
      </trkpt>
      <trkpt lat="46.63505" lon="4.83579">
        <ele>243.831543</ele>
        <time>2013-07-07T10:09:55Z</time>
      </trkpt>
      <trkpt lat="46.6351" lon="4.83603">
        <ele>245.7541504</ele>
        <time>2013-07-07T10:10:16Z</time>
      </trkpt>
      <trkpt lat="46.63516" lon="4.8362">
        <ele>246.7154541</ele>
        <time>2013-07-07T10:10:33Z</time>
      </trkpt>
      <trkpt lat="46.63517" lon="4.83623">
        <ele>246.7154541</ele>
        <time>2013-07-07T10:10:35Z</time>
      </trkpt>
      <trkpt lat="46.6352" lon="4.83637">
        <ele>247.1960449</ele>
        <time>2013-07-07T10:10:49Z</time>
      </trkpt>
      <trkpt lat="46.63526" lon="4.8365">
        <ele>249.1187744</ele>
        <time>2013-07-07T10:11:06Z</time>
      </trkpt>
      <trkpt lat="46.6353" lon="4.83668">
        <ele>250.560791</ele>
        <time>2013-07-07T10:11:24Z</time>
      </trkpt>
      <trkpt lat="46.63532" lon="4.83674">
        <ele>250.560791</ele>
        <time>2013-07-07T10:11:31Z</time>
      </trkpt>
      <trkpt lat="46.63535" lon="4.83689">
        <ele>252.0028076</ele>
        <time>2013-07-07T10:11:47Z</time>
      </trkpt>
      <trkpt lat="46.63534" lon="4.83711">
        <ele>253.4447021</ele>
        <time>2013-07-07T10:12:06Z</time>
      </trkpt>
      <trkpt lat="46.63533" lon="4.83722">
        <ele>253.925415</ele>
        <time>2013-07-07T10:12:13Z</time>
      </trkpt>
      <trkpt lat="46.63529" lon="4.83736">
        <ele>254.8865967</ele>
        <time>2013-07-07T10:12:26Z</time>
      </trkpt>
      <trkpt lat="46.6352" lon="4.83759">
        <ele>256.8093262</ele>
        <time>2013-07-07T10:12:50Z</time>
      </trkpt>
      <trkpt lat="46.63516" lon="4.83779">
        <ele>258.2513428</ele>
        <time>2013-07-07T10:13:08Z</time>
      </trkpt>
      <trkpt lat="46.63513" lon="4.838">
        <ele>259.6933594</ele>
        <time>2013-07-07T10:13:28Z</time>
      </trkpt>
      <trkpt lat="46.6351" lon="4.8381">
        <ele>260.654541</ele>
        <time>2013-07-07T10:13:49Z</time>
      </trkpt>
      <trkpt lat="46.63504" lon="4.83818">
        <ele>261.6159668</ele>
        <time>2013-07-07T10:14:12Z</time>
      </trkpt>
      <trkpt lat="46.6349" lon="4.83835">
        <ele>264.0192871</ele>
        <time>2013-07-07T10:14:38Z</time>
      </trkpt>
      <trkpt lat="46.63477" lon="4.83855">
        <ele>265.4613037</ele>
        <time>2013-07-07T10:15:00Z</time>
      </trkpt>
      <trkpt lat="46.63454" lon="4.83873">
        <ele>267.864502</ele>
        <time>2013-07-07T10:15:34Z</time>
      </trkpt>
      <trkpt lat="46.63457" lon="4.83874">
        <ele>267.864502</ele>
        <time>2013-07-07T10:15:53Z</time>
      </trkpt>
      <trkpt lat="46.63458" lon="4.83875">
        <ele>267.864502</ele>
        <time>2013-07-07T10:15:58Z</time>
      </trkpt>
      <trkpt lat="46.63488" lon="4.83878">
        <ele>264.4998779</ele>
        <time>2013-07-07T10:16:08Z</time>
      </trkpt>
      <trkpt lat="46.63497" lon="4.83879">
        <ele>263.0578613</ele>
        <time>2013-07-07T10:16:10Z</time>
      </trkpt>
      <trkpt lat="46.63521" lon="4.83882">
        <ele>260.1739502</ele>
        <time>2013-07-07T10:16:15Z</time>
      </trkpt>
      <trkpt lat="46.63564" lon="4.83886">
        <ele>257.2900391</ele>
        <time>2013-07-07T10:16:24Z</time>
      </trkpt>
      <trkpt lat="46.63589" lon="4.83888">
        <ele>254.8865967</ele>
        <time>2013-07-07T10:16:34Z</time>
      </trkpt>
      <trkpt lat="46.63595" lon="4.83943">
        <ele>255.3673096</ele>
        <time>2013-07-07T10:16:48Z</time>
      </trkpt>
      <trkpt lat="46.63587" lon="4.83981">
        <ele>255.3673096</ele>
        <time>2013-07-07T10:16:58Z</time>
      </trkpt>
      <trkpt lat="46.6358" lon="4.84054">
        <ele>256.3287354</ele>
        <time>2013-07-07T10:17:16Z</time>
      </trkpt>
      <trkpt lat="46.63568" lon="4.84133">
        <ele>254.8865967</ele>
        <time>2013-07-07T10:17:35Z</time>
      </trkpt>
      <trkpt lat="46.63563" lon="4.84198">
        <ele>255.8480225</ele>
        <time>2013-07-07T10:17:55Z</time>
      </trkpt>
      <trkpt lat="46.63558" lon="4.84231">
        <ele>258.2513428</ele>
        <time>2013-07-07T10:18:14Z</time>
      </trkpt>
      <trkpt lat="46.63553" lon="4.84259">
        <ele>260.1739502</ele>
        <time>2013-07-07T10:18:37Z</time>
      </trkpt>
      <trkpt lat="46.63553" lon="4.84259">
        <ele>262.0965576</ele>
        <time>2013-07-07T10:18:55Z</time>
      </trkpt>
      <trkpt lat="46.63553" lon="4.84259">
        <ele>262.5771484</ele>
        <time>2013-07-07T10:19:18Z</time>
      </trkpt>
      <trkpt lat="46.63553" lon="4.84259">
        <ele>262.5771484</ele>
        <time>2013-07-07T10:19:43Z</time>
      </trkpt>
      <trkpt lat="46.63553" lon="4.84259">
        <ele>263.0578613</ele>
        <time>2013-07-07T10:20:13Z</time>
      </trkpt>
      <trkpt lat="46.63553" lon="4.84259">
        <ele>264.0192871</ele>
        <time>2013-07-07T10:20:37Z</time>
      </trkpt>
      <trkpt lat="46.63553" lon="4.84259">
        <ele>265.4613037</ele>
        <time>2013-07-07T10:20:58Z</time>
      </trkpt>
      <trkpt lat="46.63553" lon="4.84259">
        <ele>266.4224854</ele>
        <time>2013-07-07T10:21:16Z</time>
      </trkpt>
      <trkpt lat="46.63526" lon="4.84385">
        <ele>267.3839111</ele>
        <time>2013-07-07T10:21:40Z</time>
      </trkpt>
      <trkpt lat="46.63519" lon="4.84416">
        <ele>267.864502</ele>
        <time>2013-07-07T10:22:01Z</time>
      </trkpt>
      <trkpt lat="46.63519" lon="4.84416">
        <ele>268.8258057</ele>
        <time>2013-07-07T10:22:18Z</time>
      </trkpt>
      <trkpt lat="46.63519" lon="4.84416">
        <ele>268.3450928</ele>
        <time>2013-07-07T10:22:31Z</time>
      </trkpt>
      <trkpt lat="46.63507" lon="4.84508">
        <ele>267.3839111</ele>
        <time>2013-07-07T10:22:45Z</time>
      </trkpt>
      <trkpt lat="46.63507" lon="4.84528">
        <ele>266.4224854</ele>
        <time>2013-07-07T10:22:54Z</time>
      </trkpt>
      <trkpt lat="46.63507" lon="4.84547">
        <ele>267.3839111</ele>
        <time>2013-07-07T10:23:06Z</time>
      </trkpt>
      <trkpt lat="46.6351" lon="4.84566">
        <ele>266.9031982</ele>
        <time>2013-07-07T10:23:11Z</time>
      </trkpt>
      <trkpt lat="46.63516" lon="4.84634">
        <ele>265.4613037</ele>
        <time>2013-07-07T10:23:23Z</time>
      </trkpt>
      <trkpt lat="46.63516" lon="4.84682">
        <ele>264.4998779</ele>
        <time>2013-07-07T10:23:30Z</time>
      </trkpt>
      <trkpt lat="46.63512" lon="4.84703">
        <ele>264.0192871</ele>
        <time>2013-07-07T10:23:33Z</time>
      </trkpt>
      <trkpt lat="46.6349" lon="4.84764">
        <ele>263.5385742</ele>
        <time>2013-07-07T10:23:44Z</time>
      </trkpt>
      <trkpt lat="46.63461" lon="4.84846">
        <ele>262.0965576</ele>
        <time>2013-07-07T10:23:59Z</time>
      </trkpt>
      <trkpt lat="46.63458" lon="4.84859">
        <ele>260.654541</ele>
        <time>2013-07-07T10:24:01Z</time>
      </trkpt>
      <trkpt lat="46.63455" lon="4.84888">
        <ele>258.2513428</ele>
        <time>2013-07-07T10:24:08Z</time>
      </trkpt>
      <trkpt lat="46.63454" lon="4.84926">
        <ele>259.6933594</ele>
        <time>2013-07-07T10:24:20Z</time>
      </trkpt>
      <trkpt lat="46.63437" lon="4.84958">
        <ele>260.654541</ele>
        <time>2013-07-07T10:24:31Z</time>
      </trkpt>
      <trkpt lat="46.63433" lon="4.84969">
        <ele>261.1352539</ele>
        <time>2013-07-07T10:24:39Z</time>
      </trkpt>
      <trkpt lat="46.63433" lon="4.84969">
        <ele>262.5771484</ele>
        <time>2013-07-07T10:24:54Z</time>
      </trkpt>
      <trkpt lat="46.63433" lon="4.84969">
        <ele>265.4613037</ele>
        <time>2013-07-07T10:25:12Z</time>
      </trkpt>
      <trkpt lat="46.63433" lon="4.84969">
        <ele>268.3450928</ele>
        <time>2013-07-07T10:25:32Z</time>
      </trkpt>
      <trkpt lat="46.63433" lon="4.84969">
        <ele>271.229126</ele>
        <time>2013-07-07T10:25:53Z</time>
      </trkpt>
      <trkpt lat="46.63433" lon="4.84969">
        <ele>271.7097168</ele>
        <time>2013-07-07T10:26:08Z</time>
      </trkpt>
      <trkpt lat="46.63433" lon="4.84969">
        <ele>273.1518555</ele>
        <time>2013-07-07T10:26:24Z</time>
      </trkpt>
      <trkpt lat="46.63433" lon="4.84969">
        <ele>274.1130371</ele>
        <time>2013-07-07T10:26:33Z</time>
      </trkpt>
      <trkpt lat="46.63433" lon="4.84969">
        <ele>273.6324463</ele>
        <time>2013-07-07T10:26:53Z</time>
      </trkpt>
      <trkpt lat="46.6335" lon="4.85057">
        <ele>274.1130371</ele>
        <time>2013-07-07T10:27:10Z</time>
      </trkpt>
      <trkpt lat="46.63315" lon="4.85038">
        <ele>273.6324463</ele>
        <time>2013-07-07T10:27:29Z</time>
      </trkpt>
      <trkpt lat="46.63268" lon="4.85015">
        <ele>271.229126</ele>
        <time>2013-07-07T10:27:49Z</time>
      </trkpt>
      <trkpt lat="46.63241" lon="4.84976">
        <ele>268.8258057</ele>
        <time>2013-07-07T10:28:00Z</time>
      </trkpt>
      <trkpt lat="46.63231" lon="4.84963">
        <ele>267.3839111</ele>
        <time>2013-07-07T10:28:03Z</time>
      </trkpt>
      <trkpt lat="46.63193" lon="4.84934">
        <ele>263.5385742</ele>
        <time>2013-07-07T10:28:16Z</time>
      </trkpt>
      <trkpt lat="46.63189" lon="4.84932">
        <ele>263.5385742</ele>
        <time>2013-07-07T10:28:17Z</time>
      </trkpt>
      <trkpt lat="46.63171" lon="4.84924">
        <ele>260.654541</ele>
        <time>2013-07-07T10:28:24Z</time>
      </trkpt>
      <trkpt lat="46.63137" lon="4.84931">
        <ele>257.770752</ele>
        <time>2013-07-07T10:28:35Z</time>
      </trkpt>
      <trkpt lat="46.6309" lon="4.84949">
        <ele>254.8865967</ele>
        <time>2013-07-07T10:28:50Z</time>
      </trkpt>
      <trkpt lat="46.63089" lon="4.84949">
        <ele>254.8865967</ele>
        <time>2013-07-07T10:29:02Z</time>
      </trkpt>
      <trkpt lat="46.63068" lon="4.84959">
        <ele>252.9639893</ele>
        <time>2013-07-07T10:29:34Z</time>
      </trkpt>
      <trkpt lat="46.63015" lon="4.84995">
        <ele>250.0802002</ele>
        <time>2013-07-07T10:29:53Z</time>
      </trkpt>
      <trkpt lat="46.63" lon="4.85005">
        <ele>249.1187744</ele>
        <time>2013-07-07T10:29:58Z</time>
      </trkpt>
      <trkpt lat="46.62984" lon="4.85045">
        <ele>245.2734375</ele>
        <time>2013-07-07T10:30:07Z</time>
      </trkpt>
      <trkpt lat="46.62985" lon="4.85098">
        <ele>243.831543</ele>
        <time>2013-07-07T10:30:18Z</time>
      </trkpt>
      <trkpt lat="46.62975" lon="4.85164">
        <ele>239.9862061</ele>
        <time>2013-07-07T10:30:28Z</time>
      </trkpt>
      <trkpt lat="46.62975" lon="4.85172">
        <ele>239.9862061</ele>
        <time>2013-07-07T10:30:29Z</time>
      </trkpt>
      <trkpt lat="46.62978" lon="4.85189">
        <ele>238.0635986</ele>
        <time>2013-07-07T10:30:31Z</time>
      </trkpt>
      <trkpt lat="46.62982" lon="4.85206">
        <ele>237.1022949</ele>
        <time>2013-07-07T10:30:33Z</time>
      </trkpt>
      <trkpt lat="46.62997" lon="4.85257">
        <ele>235.1796875</ele>
        <time>2013-07-07T10:30:42Z</time>
      </trkpt>
      <trkpt lat="46.63033" lon="4.85326">
        <ele>234.2183838</ele>
        <time>2013-07-07T10:30:56Z</time>
      </trkpt>
      <trkpt lat="46.63048" lon="4.85345">
        <ele>235.1796875</ele>
        <time>2013-07-07T10:31:01Z</time>
      </trkpt>
      <trkpt lat="46.63073" lon="4.85375">
        <ele>233.7376709</ele>
        <time>2013-07-07T10:31:14Z</time>
      </trkpt>
      <trkpt lat="46.63073" lon="4.85375">
        <ele>233.7376709</ele>
        <time>2013-07-07T10:31:34Z</time>
      </trkpt>
      <trkpt lat="46.63073" lon="4.85375">
        <ele>233.2570801</ele>
        <time>2013-07-07T10:39:45Z</time>
      </trkpt>
      <trkpt lat="46.63107" lon="4.85413">
        <ele>229.4117432</ele>
        <time>2013-07-07T10:39:59Z</time>
      </trkpt>
      <trkpt lat="46.63147" lon="4.85457">
        <ele>227.9697266</ele>
        <time>2013-07-07T10:40:12Z</time>
      </trkpt>
      <trkpt lat="46.63174" lon="4.85479">
        <ele>225.5665283</ele>
        <time>2013-07-07T10:40:18Z</time>
      </trkpt>
      <trkpt lat="46.63189" lon="4.8551">
        <ele>224.1245117</ele>
        <time>2013-07-07T10:40:23Z</time>
      </trkpt>
      <trkpt lat="46.63197" lon="4.85545">
        <ele>224.6052246</ele>
        <time>2013-07-07T10:40:28Z</time>
      </trkpt>
      <trkpt lat="46.63212" lon="4.85604">
        <ele>226.0471191</ele>
        <time>2013-07-07T10:40:41Z</time>
      </trkpt>
      <trkpt lat="46.63212" lon="4.85604">
        <ele>226.527832</ele>
        <time>2013-07-07T10:41:00Z</time>
      </trkpt>
      <trkpt lat="46.63212" lon="4.85604">
        <ele>227.4891357</ele>
        <time>2013-07-07T10:43:16Z</time>
      </trkpt>
      <trkpt lat="46.63212" lon="4.85604">
        <ele>226.0471191</ele>
        <time>2013-07-07T10:46:57Z</time>
      </trkpt>
      <trkpt lat="46.63203" lon="4.85576">
        <ele>227.0085449</ele>
        <time>2013-07-07T10:47:04Z</time>
      </trkpt>
      <trkpt lat="46.63219" lon="4.85624">
        <ele>227.0085449</ele>
        <time>2013-07-07T10:47:09Z</time>
      </trkpt>
      <trkpt lat="46.63262" lon="4.85729">
        <ele>228.9311523</ele>
        <time>2013-07-07T10:47:21Z</time>
      </trkpt>
      <trkpt lat="46.63334" lon="4.85867">
        <ele>228.9311523</ele>
        <time>2013-07-07T10:47:32Z</time>
      </trkpt>
      <trkpt lat="46.63373" lon="4.85999">
        <ele>226.527832</ele>
        <time>2013-07-07T10:47:39Z</time>
      </trkpt>
      <trkpt lat="46.63397" lon="4.86081">
        <ele>225.0859375</ele>
        <time>2013-07-07T10:47:43Z</time>
      </trkpt>
      <trkpt lat="46.63432" lon="4.86151">
        <ele>223.163208</ele>
        <time>2013-07-07T10:47:47Z</time>
      </trkpt>
      <trkpt lat="46.63448" lon="4.86189">
        <ele>222.2017822</ele>
        <time>2013-07-07T10:47:49Z</time>
      </trkpt>
      <trkpt lat="46.63457" lon="4.86231">
        <ele>221.7211914</ele>
        <time>2013-07-07T10:47:51Z</time>
      </trkpt>
      <trkpt lat="46.63475" lon="4.86328">
        <ele>221.2406006</ele>
        <time>2013-07-07T10:47:56Z</time>
      </trkpt>
      <trkpt lat="46.6348" lon="4.86363">
        <ele>219.798584</ele>
        <time>2013-07-07T10:47:58Z</time>
      </trkpt>
      <trkpt lat="46.63482" lon="4.86415">
        <ele>217.8759766</ele>
        <time>2013-07-07T10:48:01Z</time>
      </trkpt>
      <trkpt lat="46.63479" lon="4.86474">
        <ele>217.3953857</ele>
        <time>2013-07-07T10:48:05Z</time>
      </trkpt>
      <trkpt lat="46.63484" lon="4.86499">
        <ele>215.4726563</ele>
        <time>2013-07-07T10:48:12Z</time>
      </trkpt>
      <trkpt lat="46.63499" lon="4.86496">
        <ele>215.9532471</ele>
        <time>2013-07-07T10:48:13Z</time>
      </trkpt>
      <trkpt lat="46.63515" lon="4.86504">
        <ele>216.43396</ele>
        <time>2013-07-07T10:48:15Z</time>
      </trkpt>
      <trkpt lat="46.63618" lon="4.86574">
        <ele>216.43396</ele>
        <time>2013-07-07T10:48:25Z</time>
      </trkpt>
      <trkpt lat="46.6368" lon="4.86601">
        <ele>215.4726563</ele>
        <time>2013-07-07T10:48:33Z</time>
      </trkpt>
      <trkpt lat="46.63713" lon="4.86614">
        <ele>214.0306396</ele>
        <time>2013-07-07T10:48:36Z</time>
      </trkpt>
      <trkpt lat="46.63733" lon="4.86628">
        <ele>213.0693359</ele>
        <time>2013-07-07T10:48:38Z</time>
      </trkpt>
      <trkpt lat="46.63748" lon="4.86652">
        <ele>211.1467285</ele>
        <time>2013-07-07T10:48:40Z</time>
      </trkpt>
      <trkpt lat="46.63779" lon="4.86713">
        <ele>209.2241211</ele>
        <time>2013-07-07T10:48:45Z</time>
      </trkpt>
      <trkpt lat="46.6381" lon="4.86734">
        <ele>206.8206787</ele>
        <time>2013-07-07T10:48:51Z</time>
      </trkpt>
      <trkpt lat="46.63821" lon="4.86706">
        <ele>206.8206787</ele>
        <time>2013-07-07T10:48:53Z</time>
      </trkpt>
      <trkpt lat="46.63944" lon="4.86657">
        <ele>207.3013916</ele>
        <time>2013-07-07T10:49:06Z</time>
      </trkpt>
      <trkpt lat="46.63998" lon="4.86621">
        <ele>206.8206787</ele>
        <time>2013-07-07T10:49:14Z</time>
      </trkpt>
      <trkpt lat="46.64007" lon="4.86617">
        <ele>206.8206787</ele>
        <time>2013-07-07T10:49:15Z</time>
      </trkpt>
      <trkpt lat="46.64041" lon="4.86618">
        <ele>206.8206787</ele>
        <time>2013-07-07T10:49:19Z</time>
      </trkpt>
      <trkpt lat="46.64188" lon="4.86682">
        <ele>207.3013916</ele>
        <time>2013-07-07T10:49:33Z</time>
      </trkpt>
      <trkpt lat="46.64217" lon="4.86692">
        <ele>205.3787842</ele>
        <time>2013-07-07T10:49:36Z</time>
      </trkpt>
      <trkpt lat="46.64322" lon="4.8671">
        <ele>205.3787842</ele>
        <time>2013-07-07T10:49:47Z</time>
      </trkpt>
      <trkpt lat="46.6435" lon="4.86716">
        <ele>204.4174805</ele>
        <time>2013-07-07T10:49:50Z</time>
      </trkpt>
      <trkpt lat="46.6437" lon="4.86728">
        <ele>202.9754639</ele>
        <time>2013-07-07T10:49:54Z</time>
      </trkpt>
      <trkpt lat="46.64374" lon="4.86731">
        <ele>202.9754639</ele>
        <time>2013-07-07T10:49:57Z</time>
      </trkpt>
      <trkpt lat="46.64411" lon="4.86654">
        <ele>205.3787842</ele>
        <time>2013-07-07T10:50:04Z</time>
      </trkpt>
      <trkpt lat="46.64429" lon="4.86618">
        <ele>208.2628174</ele>
        <time>2013-07-07T10:50:06Z</time>
      </trkpt>
      <trkpt lat="46.64449" lon="4.86577">
        <ele>209.2241211</ele>
        <time>2013-07-07T10:50:08Z</time>
      </trkpt>
      <trkpt lat="46.64496" lon="4.8648">
        <ele>212.1080322</ele>
        <time>2013-07-07T10:50:13Z</time>
      </trkpt>
      <trkpt lat="46.64544" lon="4.86382">
        <ele>214.0306396</ele>
        <time>2013-07-07T10:50:19Z</time>
      </trkpt>
      <trkpt lat="46.64559" lon="4.86355">
        <ele>214.0306396</ele>
        <time>2013-07-07T10:50:22Z</time>
      </trkpt>
      <trkpt lat="46.64589" lon="4.86325">
        <ele>215.9532471</ele>
        <time>2013-07-07T10:50:26Z</time>
      </trkpt>
      <trkpt lat="46.64602" lon="4.86276">
        <ele>216.9146729</ele>
        <time>2013-07-07T10:50:30Z</time>
      </trkpt>
      <trkpt lat="46.64659" lon="4.86144">
        <ele>218.3565674</ele>
        <time>2013-07-07T10:50:37Z</time>
      </trkpt>
      <trkpt lat="46.64674" lon="4.86103">
        <ele>218.3565674</ele>
        <time>2013-07-07T10:50:39Z</time>
      </trkpt>
      <trkpt lat="46.64689" lon="4.86018">
        <ele>215.9532471</ele>
        <time>2013-07-07T10:50:43Z</time>
      </trkpt>
      <trkpt lat="46.6469" lon="4.85973">
        <ele>214.5112305</ele>
        <time>2013-07-07T10:50:45Z</time>
      </trkpt>
      <trkpt lat="46.64699" lon="4.85866">
        <ele>211.6274414</ele>
        <time>2013-07-07T10:50:50Z</time>
      </trkpt>
      <trkpt lat="46.647" lon="4.85784">
        <ele>209.704834</ele>
        <time>2013-07-07T10:50:54Z</time>
      </trkpt>
      <trkpt lat="46.64697" lon="4.85744">
        <ele>208.2628174</ele>
        <time>2013-07-07T10:50:56Z</time>
      </trkpt>
      <trkpt lat="46.64688" lon="4.8569">
        <ele>206.8206787</ele>
        <time>2013-07-07T10:50:59Z</time>
      </trkpt>
      <trkpt lat="46.64682" lon="4.85661">
        <ele>203.9368896</ele>
        <time>2013-07-07T10:51:04Z</time>
      </trkpt>
      <trkpt lat="46.64669" lon="4.85605">
        <ele>202.9754639</ele>
        <time>2013-07-07T10:51:11Z</time>
      </trkpt>
      <trkpt lat="46.64604" lon="4.85421">
        <ele>203.9368896</ele>
        <time>2013-07-07T10:51:24Z</time>
      </trkpt>
      <trkpt lat="46.646" lon="4.85405">
        <ele>204.4174805</ele>
        <time>2013-07-07T10:51:25Z</time>
      </trkpt>
      <trkpt lat="46.64594" lon="4.85339">
        <ele>204.8980713</ele>
        <time>2013-07-07T10:51:29Z</time>
      </trkpt>
      <trkpt lat="46.64596" lon="4.85311">
        <ele>204.4174805</ele>
        <time>2013-07-07T10:51:31Z</time>
      </trkpt>
      <trkpt lat="46.64617" lon="4.85273">
        <ele>202.9754639</ele>
        <time>2013-07-07T10:51:35Z</time>
      </trkpt>
      <trkpt lat="46.64642" lon="4.8525">
        <ele>202.494873</ele>
        <time>2013-07-07T10:51:38Z</time>
      </trkpt>
      <trkpt lat="46.64659" lon="4.85232">
        <ele>201.5335693</ele>
        <time>2013-07-07T10:51:40Z</time>
      </trkpt>
      <trkpt lat="46.64666" lon="4.85223">
        <ele>201.5335693</ele>
        <time>2013-07-07T10:51:41Z</time>
      </trkpt>
      <trkpt lat="46.64673" lon="4.85176">
        <ele>200.0916748</ele>
        <time>2013-07-07T10:51:45Z</time>
      </trkpt>
      <trkpt lat="46.64653" lon="4.8503">
        <ele>199.6108398</ele>
        <time>2013-07-07T10:51:56Z</time>
      </trkpt>
      <trkpt lat="46.64655" lon="4.84948">
        <ele>198.1689453</ele>
        <time>2013-07-07T10:52:01Z</time>
      </trkpt>
      <trkpt lat="46.64655" lon="4.84931">
        <ele>198.1689453</ele>
        <time>2013-07-07T10:52:02Z</time>
      </trkpt>
      <trkpt lat="46.64641" lon="4.84849">
        <ele>197.6882324</ele>
        <time>2013-07-07T10:52:07Z</time>
      </trkpt>
      <trkpt lat="46.64555" lon="4.84679">
        <ele>197.6882324</ele>
        <time>2013-07-07T10:52:19Z</time>
      </trkpt>
      <trkpt lat="46.64469" lon="4.84532">
        <ele>195.765625</ele>
        <time>2013-07-07T10:52:32Z</time>
      </trkpt>
      <trkpt lat="46.64462" lon="4.84515">
        <ele>194.8043213</ele>
        <time>2013-07-07T10:52:34Z</time>
      </trkpt>
      <trkpt lat="46.64462" lon="4.84458">
        <ele>193.3623047</ele>
        <time>2013-07-07T10:52:40Z</time>
      </trkpt>
      <trkpt lat="46.64474" lon="4.84422">
        <ele>192.8817139</ele>
        <time>2013-07-07T10:52:44Z</time>
      </trkpt>
      <trkpt lat="46.64545" lon="4.84288">
        <ele>189.9976807</ele>
        <time>2013-07-07T10:52:58Z</time>
      </trkpt>
      <trkpt lat="46.64548" lon="4.8428">
        <ele>189.9976807</ele>
        <time>2013-07-07T10:52:59Z</time>
      </trkpt>
      <trkpt lat="46.64555" lon="4.84246">
        <ele>189.5169678</ele>
        <time>2013-07-07T10:53:03Z</time>
      </trkpt>
      <trkpt lat="46.64559" lon="4.84214">
        <ele>189.5169678</ele>
        <time>2013-07-07T10:53:06Z</time>
      </trkpt>
      <trkpt lat="46.64593" lon="4.84017">
        <ele>189.5169678</ele>
        <time>2013-07-07T10:53:17Z</time>
      </trkpt>
      <trkpt lat="46.64642" lon="4.83779">
        <ele>188.0750732</ele>
        <time>2013-07-07T10:53:28Z</time>
      </trkpt>
      <trkpt lat="46.64669" lon="4.83722">
        <ele>185.6717529</ele>
        <time>2013-07-07T10:53:32Z</time>
      </trkpt>
      <trkpt lat="46.64677" lon="4.83712">
        <ele>185.6717529</ele>
        <time>2013-07-07T10:53:33Z</time>
      </trkpt>
      <trkpt lat="46.64753" lon="4.83634">
        <ele>188.5557861</ele>
        <time>2013-07-07T10:53:41Z</time>
      </trkpt>
      <trkpt lat="46.64831" lon="4.83548">
        <ele>189.5169678</ele>
        <time>2013-07-07T10:53:46Z</time>
      </trkpt>
      <trkpt lat="46.64888" lon="4.83476">
        <ele>187.1137695</ele>
        <time>2013-07-07T10:53:50Z</time>
      </trkpt>
      <trkpt lat="46.65018" lon="4.83367">
        <ele>188.0750732</ele>
        <time>2013-07-07T10:53:58Z</time>
      </trkpt>
      <trkpt lat="46.65219" lon="4.83208">
        <ele>189.036377</ele>
        <time>2013-07-07T10:54:08Z</time>
      </trkpt>
      <trkpt lat="46.65424" lon="4.83029">
        <ele>186.1524658</ele>
        <time>2013-07-07T10:54:18Z</time>
      </trkpt>
      <trkpt lat="46.65524" lon="4.82936">
        <ele>183.7490234</ele>
        <time>2013-07-07T10:54:23Z</time>
      </trkpt>
      <trkpt lat="46.65716" lon="4.82796">
        <ele>184.7105713</ele>
        <time>2013-07-07T10:54:32Z</time>
      </trkpt>
      <trkpt lat="46.65792" lon="4.82713">
        <ele>185.6717529</ele>
        <time>2013-07-07T10:54:36Z</time>
      </trkpt>
      <trkpt lat="46.66097" lon="4.82379">
        <ele>186.1524658</ele>
        <time>2013-07-07T10:54:52Z</time>
      </trkpt>
      <trkpt lat="46.6616" lon="4.82328">
        <ele>187.5943604</ele>
        <time>2013-07-07T10:54:55Z</time>
      </trkpt>
      <trkpt lat="46.66267" lon="4.8225">
        <ele>186.1524658</ele>
        <time>2013-07-07T10:55:00Z</time>
      </trkpt>
      <trkpt lat="46.66312" lon="4.8223">
        <ele>188.5557861</ele>
        <time>2013-07-07T10:55:02Z</time>
      </trkpt>
      <trkpt lat="46.66358" lon="4.82211">
        <ele>189.9976807</ele>
        <time>2013-07-07T10:55:04Z</time>
      </trkpt>
      <trkpt lat="46.66473" lon="4.82164">
        <ele>187.5943604</ele>
        <time>2013-07-07T10:55:09Z</time>
      </trkpt>
      <trkpt lat="46.66519" lon="4.82146">
        <ele>186.1524658</ele>
        <time>2013-07-07T10:55:11Z</time>
      </trkpt>
      <trkpt lat="46.66619" lon="4.82105">
        <ele>183.2684326</ele>
        <time>2013-07-07T10:55:16Z</time>
      </trkpt>
      <trkpt lat="46.66717" lon="4.8206">
        <ele>181.826416</ele>
        <time>2013-07-07T10:55:23Z</time>
      </trkpt>
      <trkpt lat="46.66741" lon="4.82047">
        <ele>180.3845215</ele>
        <time>2013-07-07T10:55:26Z</time>
      </trkpt>
      <trkpt lat="46.66758" lon="4.8209">
        <ele>181.826416</ele>
        <time>2013-07-07T10:55:32Z</time>
      </trkpt>
      <trkpt lat="46.6676" lon="4.82104">
        <ele>181.826416</ele>
        <time>2013-07-07T10:55:33Z</time>
      </trkpt>
      <trkpt lat="46.66765" lon="4.82129">
        <ele>181.826416</ele>
        <time>2013-07-07T10:55:35Z</time>
      </trkpt>
      <trkpt lat="46.66776" lon="4.82175">
        <ele>180.3845215</ele>
        <time>2013-07-07T10:55:43Z</time>
      </trkpt>
      <trkpt lat="46.66776" lon="4.82175">
        <ele>180.3845215</ele>
        <time>2013-07-07T10:55:57Z</time>
      </trkpt>
      <trkpt lat="46.66784" lon="4.82182">
        <ele>180.3845215</ele>
        <time>2013-07-07T10:56:48Z</time>
      </trkpt>
      <trkpt lat="46.66795" lon="4.8219">
        <ele>180.8652344</ele>
        <time>2013-07-07T10:56:57Z</time>
      </trkpt>
      <trkpt lat="46.66795" lon="4.8219">
        <ele>180.3845215</ele>
        <time>2013-07-07T10:57:23Z</time>
      </trkpt>
      <trkpt lat="46.66818" lon="4.82203">
        <ele>181.3458252</ele>
        <time>2013-07-07T10:57:32Z</time>
      </trkpt>
      <trkpt lat="46.66856" lon="4.82277">
        <ele>181.3458252</ele>
        <time>2013-07-07T10:57:47Z</time>
      </trkpt>
      <trkpt lat="46.66888" lon="4.82351">
        <ele>180.8652344</ele>
        <time>2013-07-07T10:57:58Z</time>
      </trkpt>
      <trkpt lat="46.66907" lon="4.82394">
        <ele>179.9038086</ele>
        <time>2013-07-07T10:58:13Z</time>
      </trkpt>
      <trkpt lat="46.66908" lon="4.82398">
        <ele>179.9038086</ele>
        <time>2013-07-07T10:58:16Z</time>
      </trkpt>
      <trkpt lat="46.66903" lon="4.82408">
        <ele>179.9038086</ele>
        <time>2013-07-07T10:58:20Z</time>
      </trkpt>
      <trkpt lat="46.669" lon="4.82408">
        <ele>179.4232178</ele>
        <time>2013-07-07T10:58:22Z</time>
      </trkpt>
      <trkpt lat="46.6686" lon="4.82367">
        <ele>177.5006104</ele>
        <time>2013-07-07T10:58:40Z</time>
      </trkpt>
      <trkpt lat="46.66832" lon="4.82343">
        <ele>176.0585938</ele>
        <time>2013-07-07T10:58:53Z</time>
      </trkpt>
      <trkpt lat="46.66831" lon="4.82349">
        <ele>174.6165771</ele>
        <time>2013-07-07T11:56:20Z</time>
      </trkpt>
    </trkseg>
  </trk>
</gpx>